<?xml version='1.0' encoding='UTF-8'?>
<gpx version="1.1" creator="https://www.komoot.de" xmlns="http://www.topografix.com/GPX/1/1" xmlns:xsi="http://www.w3.org/2001/XMLSchema-instance" xsi:schemaLocation="http://www.topografix.com/GPX/1/1 http://www.topografix.com/GPX/1/1/gpx.xsd">
  <metadata>
    <name>2026 06 13_Lemgo radelt-Die Tichlerroute 5-Samstag</name>
    <author>
      <link href="https://www.komoot.de">
        <text>komoot</text>
        <type>text/html</type>
      </link>
    </author>
  </metadata>
  <trk>
    <name>2026 06 13_Lemgo radelt-Die Tichlerroute 5-Samstag</name>
    <trkseg>
      <trkpt lat="52.024446" lon="8.907343">
        <ele>97.547083</ele>
        <time>2025-09-29T10:00:55.659Z</time>
      </trkpt>
      <trkpt lat="52.024501" lon="8.907135">
        <ele>97.547083</ele>
        <time>2025-09-29T10:00:58.534Z</time>
      </trkpt>
      <trkpt lat="52.024630" lon="8.907230">
        <ele>97.547083</ele>
        <time>2025-09-29T10:01:01.461Z</time>
      </trkpt>
      <trkpt lat="52.024761" lon="8.907326">
        <ele>97.547083</ele>
        <time>2025-09-29T10:01:04.433Z</time>
      </trkpt>
      <trkpt lat="52.024891" lon="8.907415">
        <ele>97.547083</ele>
        <time>2025-09-29T10:01:07.370Z</time>
      </trkpt>
      <trkpt lat="52.025044" lon="8.907447">
        <ele>97.547083</ele>
        <time>2025-09-29T10:01:10.670Z</time>
      </trkpt>
      <trkpt lat="52.025134" lon="8.907465">
        <ele>97.547083</ele>
        <time>2025-09-29T10:01:12.628Z</time>
      </trkpt>
      <trkpt lat="52.025148" lon="8.907466">
        <ele>97.547083</ele>
        <time>2025-09-29T10:01:13.020Z</time>
      </trkpt>
      <trkpt lat="52.025203" lon="8.907453">
        <ele>97.547083</ele>
        <time>2025-09-29T10:01:14.581Z</time>
      </trkpt>
      <trkpt lat="52.025188" lon="8.907045">
        <ele>97.852509</ele>
        <time>2025-09-29T10:01:20.360Z</time>
      </trkpt>
      <trkpt lat="52.025302" lon="8.907075">
        <ele>98.004278</ele>
        <time>2025-09-29T10:01:23.593Z</time>
      </trkpt>
      <trkpt lat="52.025432" lon="8.907109">
        <ele>98.177322</ele>
        <time>2025-09-29T10:01:27.303Z</time>
      </trkpt>
      <trkpt lat="52.025662" lon="8.907155">
        <ele>98.481867</ele>
        <time>2025-09-29T10:01:33.797Z</time>
      </trkpt>
      <trkpt lat="52.026131" lon="8.907287">
        <ele>99.107398</ele>
        <time>2025-09-29T10:01:47.186Z</time>
      </trkpt>
      <trkpt lat="52.026216" lon="8.907306">
        <ele>99.220157</ele>
        <time>2025-09-29T10:01:49.612Z</time>
      </trkpt>
      <trkpt lat="52.026500" lon="8.907242">
        <ele>99.596959</ele>
        <time>2025-09-29T10:01:57.701Z</time>
      </trkpt>
      <trkpt lat="52.026827" lon="8.907323">
        <ele>99.984739</ele>
        <time>2025-09-29T10:02:06.999Z</time>
      </trkpt>
      <trkpt lat="52.027007" lon="8.907368">
        <ele>100.131116</ele>
        <time>2025-09-29T10:02:12.119Z</time>
      </trkpt>
      <trkpt lat="52.027239" lon="8.907425">
        <ele>100.319706</ele>
        <time>2025-09-29T10:02:18.682Z</time>
      </trkpt>
      <trkpt lat="52.027507" lon="8.907483">
        <ele>100.537013</ele>
        <time>2025-09-29T10:02:26.242Z</time>
      </trkpt>
      <trkpt lat="52.027564" lon="8.907495">
        <ele>100.583210</ele>
        <time>2025-09-29T10:02:27.839Z</time>
      </trkpt>
      <trkpt lat="52.027650" lon="8.907516">
        <ele>100.653108</ele>
        <time>2025-09-29T10:02:30.269Z</time>
      </trkpt>
      <trkpt lat="52.027743" lon="8.907323">
        <ele>100.774340</ele>
        <time>2025-09-29T10:02:34.485Z</time>
      </trkpt>
      <trkpt lat="52.027780" lon="8.907224">
        <ele>100.831623</ele>
        <time>2025-09-29T10:02:36.051Z</time>
      </trkpt>
      <trkpt lat="52.027834" lon="8.907258">
        <ele>100.878169</ele>
        <time>2025-09-29T10:02:37.320Z</time>
      </trkpt>
      <trkpt lat="52.027882" lon="8.907279">
        <ele>100.918123</ele>
        <time>2025-09-29T10:02:38.414Z</time>
      </trkpt>
      <trkpt lat="52.027933" lon="8.907311">
        <ele>100.962063</ele>
        <time>2025-09-29T10:02:39.598Z</time>
      </trkpt>
      <trkpt lat="52.028044" lon="8.907319">
        <ele>101.051367</ele>
        <time>2025-09-29T10:02:42.015Z</time>
      </trkpt>
      <trkpt lat="52.028209" lon="8.907286">
        <ele>101.184987</ele>
        <time>2025-09-29T10:02:45.627Z</time>
      </trkpt>
      <trkpt lat="52.028443" lon="8.907157">
        <ele>101.361213</ele>
        <time>2025-09-29T10:02:50.975Z</time>
      </trkpt>
      <trkpt lat="52.028924" lon="8.906683">
        <ele>101.439631</ele>
        <time>2025-09-29T10:03:03.071Z</time>
      </trkpt>
      <trkpt lat="52.029069" lon="8.906541">
        <ele>101.463231</ele>
        <time>2025-09-29T10:03:06.757Z</time>
      </trkpt>
      <trkpt lat="52.029168" lon="8.906557">
        <ele>101.477100</ele>
        <time>2025-09-29T10:03:08.913Z</time>
      </trkpt>
      <trkpt lat="52.029384" lon="8.906277">
        <ele>101.515617</ele>
        <time>2025-09-29T10:03:14.832Z</time>
      </trkpt>
      <trkpt lat="52.029351" lon="8.906151">
        <ele>101.527363</ele>
        <time>2025-09-29T10:03:16.619Z</time>
      </trkpt>
      <trkpt lat="52.029338" lon="8.905883">
        <ele>101.550421</ele>
        <time>2025-09-29T10:03:20.100Z</time>
      </trkpt>
      <trkpt lat="52.029348" lon="8.905580">
        <ele>101.576447</ele>
        <time>2025-09-29T10:03:23.995Z</time>
      </trkpt>
      <trkpt lat="52.029354" lon="8.905418">
        <ele>101.590367</ele>
        <time>2025-09-29T10:03:26.061Z</time>
      </trkpt>
      <trkpt lat="52.029432" lon="8.904405">
        <ele>101.613835</ele>
        <time>2025-09-29T10:03:38.984Z</time>
      </trkpt>
      <trkpt lat="52.029518" lon="8.903578">
        <ele>101.620525</ele>
        <time>2025-09-29T10:03:49.748Z</time>
      </trkpt>
      <trkpt lat="52.029681" lon="8.902592">
        <ele>101.628668</ele>
        <time>2025-09-29T10:04:03.365Z</time>
      </trkpt>
      <trkpt lat="52.029721" lon="8.902362">
        <ele>101.630575</ele>
        <time>2025-09-29T10:04:06.552Z</time>
      </trkpt>
      <trkpt lat="52.030007" lon="8.900931">
        <ele>101.471323</ele>
        <time>2025-09-29T10:04:26.194Z</time>
      </trkpt>
      <trkpt lat="52.030086" lon="8.900443">
        <ele>101.417884</ele>
        <time>2025-09-29T10:04:32.615Z</time>
      </trkpt>
      <trkpt lat="52.030250" lon="8.899045">
        <ele>101.215953</ele>
        <time>2025-09-29T10:04:50.088Z</time>
      </trkpt>
      <trkpt lat="52.030267" lon="8.898422">
        <ele>101.087066</ele>
        <time>2025-09-29T10:04:57.772Z</time>
      </trkpt>
      <trkpt lat="52.030298" lon="8.897334">
        <ele>100.861958</ele>
        <time>2025-09-29T10:05:11.548Z</time>
      </trkpt>
      <trkpt lat="52.030300" lon="8.897246">
        <ele>100.843758</ele>
        <time>2025-09-29T10:05:12.646Z</time>
      </trkpt>
      <trkpt lat="52.030302" lon="8.896595">
        <ele>100.709825</ele>
        <time>2025-09-29T10:05:21.038Z</time>
      </trkpt>
      <trkpt lat="52.030249" lon="8.896319">
        <ele>100.654948</ele>
        <time>2025-09-29T10:05:24.812Z</time>
      </trkpt>
      <trkpt lat="52.030217" lon="8.896223">
        <ele>100.634224</ele>
        <time>2025-09-29T10:05:26.240Z</time>
      </trkpt>
      <trkpt lat="52.030151" lon="8.896031">
        <ele>100.592480</ele>
        <time>2025-09-29T10:05:29.098Z</time>
      </trkpt>
      <trkpt lat="52.029938" lon="8.895541">
        <ele>100.478605</ele>
        <time>2025-09-29T10:05:36.866Z</time>
      </trkpt>
      <trkpt lat="52.029766" lon="8.895070">
        <ele>100.374646</ele>
        <time>2025-09-29T10:05:43.816Z</time>
      </trkpt>
      <trkpt lat="52.029669" lon="8.894729">
        <ele>100.303340</ele>
        <time>2025-09-29T10:05:48.462Z</time>
      </trkpt>
      <trkpt lat="52.029616" lon="8.894423">
        <ele>100.243002</ele>
        <time>2025-09-29T10:05:52.395Z</time>
      </trkpt>
      <trkpt lat="52.029489" lon="8.893775">
        <ele>100.020110</ele>
        <time>2025-09-29T10:06:00.747Z</time>
      </trkpt>
      <trkpt lat="52.029346" lon="8.893419">
        <ele>99.781608</ele>
        <time>2025-09-29T10:06:05.923Z</time>
      </trkpt>
      <trkpt lat="52.029211" lon="8.893334">
        <ele>99.649605</ele>
        <time>2025-09-29T10:06:08.722Z</time>
      </trkpt>
      <trkpt lat="52.028655" lon="8.893348">
        <ele>99.142595</ele>
        <time>2025-09-29T10:06:19.404Z</time>
      </trkpt>
      <trkpt lat="52.028438" lon="8.893376">
        <ele>98.944117</ele>
        <time>2025-09-29T10:06:23.659Z</time>
      </trkpt>
      <trkpt lat="52.028226" lon="8.893483">
        <ele>98.741714</ele>
        <time>2025-09-29T10:06:28.026Z</time>
      </trkpt>
      <trkpt lat="52.028179" lon="8.893192">
        <ele>98.572934</ele>
        <time>2025-09-29T10:06:31.629Z</time>
      </trkpt>
      <trkpt lat="52.028152" lon="8.892716">
        <ele>98.538497</ele>
        <time>2025-09-29T10:06:37.322Z</time>
      </trkpt>
      <trkpt lat="52.028140" lon="8.892461">
        <ele>98.549445</ele>
        <time>2025-09-29T10:06:40.351Z</time>
      </trkpt>
      <trkpt lat="52.028129" lon="8.891668">
        <ele>98.583402</ele>
        <time>2025-09-29T10:06:49.942Z</time>
      </trkpt>
      <trkpt lat="52.028140" lon="8.891549">
        <ele>98.588553</ele>
        <time>2025-09-29T10:06:51.478Z</time>
      </trkpt>
      <trkpt lat="52.028217" lon="8.891231">
        <ele>98.603183</ele>
        <time>2025-09-29T10:06:56.014Z</time>
      </trkpt>
      <trkpt lat="52.028328" lon="8.890940">
        <ele>98.617840</ele>
        <time>2025-09-29T10:07:00.703Z</time>
      </trkpt>
      <trkpt lat="52.028490" lon="8.890595">
        <ele>98.636419</ele>
        <time>2025-09-29T10:07:06.770Z</time>
      </trkpt>
      <trkpt lat="52.028696" lon="8.890270">
        <ele>98.834647</ele>
        <time>2025-09-29T10:07:13.357Z</time>
      </trkpt>
      <trkpt lat="52.028927" lon="8.889899">
        <ele>99.289266</ele>
        <time>2025-09-29T10:07:20.890Z</time>
      </trkpt>
      <trkpt lat="52.029218" lon="8.889471">
        <ele>99.838666</ele>
        <time>2025-09-29T10:07:30.096Z</time>
      </trkpt>
      <trkpt lat="52.029359" lon="8.889126">
        <ele>100.195397</ele>
        <time>2025-09-29T10:07:36.053Z</time>
      </trkpt>
      <trkpt lat="52.029381" lon="8.888948">
        <ele>100.351769</ele>
        <time>2025-09-29T10:07:38.644Z</time>
      </trkpt>
      <trkpt lat="52.029386" lon="8.888633">
        <ele>100.623167</ele>
        <time>2025-09-29T10:07:43.120Z</time>
      </trkpt>
      <trkpt lat="52.029366" lon="8.888415">
        <ele>100.813004</ele>
        <time>2025-09-29T10:07:46.204Z</time>
      </trkpt>
      <trkpt lat="52.029288" lon="8.888022">
        <ele>101.161173</ele>
        <time>2025-09-29T10:07:51.836Z</time>
      </trkpt>
      <trkpt lat="52.029052" lon="8.886811">
        <ele>100.036453</ele>
        <time>2025-09-29T10:08:07.979Z</time>
      </trkpt>
      <trkpt lat="52.028900" lon="8.885897">
        <ele>99.198153</ele>
        <time>2025-09-29T10:08:18.448Z</time>
      </trkpt>
      <trkpt lat="52.028840" lon="8.885360">
        <ele>98.714914</ele>
        <time>2025-09-29T10:08:23.936Z</time>
      </trkpt>
      <trkpt lat="52.028514" lon="8.885496">
        <ele>97.847144</ele>
        <time>2025-09-29T10:08:29.455Z</time>
      </trkpt>
      <trkpt lat="52.028232" lon="8.885665">
        <ele>96.935358</ele>
        <time>2025-09-29T10:08:34.392Z</time>
      </trkpt>
      <trkpt lat="52.028065" lon="8.885817">
        <ele>96.354710</ele>
        <time>2025-09-29T10:08:37.548Z</time>
      </trkpt>
      <trkpt lat="52.027857" lon="8.885960">
        <ele>95.669585</ele>
        <time>2025-09-29T10:08:41.118Z</time>
      </trkpt>
      <trkpt lat="52.027754" lon="8.886031">
        <ele>95.330179</ele>
        <time>2025-09-29T10:08:42.874Z</time>
      </trkpt>
      <trkpt lat="52.027617" lon="8.886081">
        <ele>94.904222</ele>
        <time>2025-09-29T10:08:45.109Z</time>
      </trkpt>
      <trkpt lat="52.027478" lon="8.886178">
        <ele>94.445321</ele>
        <time>2025-09-29T10:08:47.568Z</time>
      </trkpt>
      <trkpt lat="52.027164" lon="8.886462">
        <ele>93.355195</ele>
        <time>2025-09-29T10:08:53.641Z</time>
      </trkpt>
      <trkpt lat="52.025896" lon="8.886930">
        <ele>92.908273</ele>
        <time>2025-09-29T10:09:20.671Z</time>
      </trkpt>
      <trkpt lat="52.025822" lon="8.886453">
        <ele>92.855817</ele>
        <time>2025-09-29T10:09:27.339Z</time>
      </trkpt>
      <trkpt lat="52.025596" lon="8.885271">
        <ele>92.851131</ele>
        <time>2025-09-29T10:09:44.237Z</time>
      </trkpt>
      <trkpt lat="52.025575" lon="8.885164">
        <ele>92.857164</ele>
        <time>2025-09-29T10:09:45.757Z</time>
      </trkpt>
      <trkpt lat="52.025541" lon="8.884986">
        <ele>92.867177</ele>
        <time>2025-09-29T10:09:48.280Z</time>
      </trkpt>
      <trkpt lat="52.025441" lon="8.884462">
        <ele>92.896651</ele>
        <time>2025-09-29T10:09:55.562Z</time>
      </trkpt>
      <trkpt lat="52.025316" lon="8.883806">
        <ele>92.933546</ele>
        <time>2025-09-29T10:10:04.463Z</time>
      </trkpt>
      <trkpt lat="52.024921" lon="8.881740">
        <ele>92.605295</ele>
        <time>2025-09-29T10:10:30.791Z</time>
      </trkpt>
      <trkpt lat="52.024847" lon="8.881268">
        <ele>92.493407</ele>
        <time>2025-09-29T10:10:36.900Z</time>
      </trkpt>
      <trkpt lat="52.024734" lon="8.880343">
        <ele>92.298722</ele>
        <time>2025-09-29T10:10:49.159Z</time>
      </trkpt>
      <trkpt lat="52.024700" lon="8.879998">
        <ele>92.320415</ele>
        <time>2025-09-29T10:10:53.801Z</time>
      </trkpt>
      <trkpt lat="52.024670" lon="8.879725">
        <ele>92.337634</ele>
        <time>2025-09-29T10:10:57.502Z</time>
      </trkpt>
      <trkpt lat="52.024652" lon="8.879569">
        <ele>92.347488</ele>
        <time>2025-09-29T10:10:59.641Z</time>
      </trkpt>
      <trkpt lat="52.024647" lon="8.879528">
        <ele>92.350083</ele>
        <time>2025-09-29T10:11:00.210Z</time>
      </trkpt>
      <trkpt lat="52.024450" lon="8.877773">
        <ele>92.460846</ele>
        <time>2025-09-29T10:11:23.851Z</time>
      </trkpt>
      <trkpt lat="52.024378" lon="8.876955">
        <ele>92.345877</ele>
        <time>2025-09-29T10:11:34.028Z</time>
      </trkpt>
      <trkpt lat="52.024395" lon="8.876835">
        <ele>92.318798</ele>
        <time>2025-09-29T10:11:35.534Z</time>
      </trkpt>
      <trkpt lat="52.024485" lon="8.876766">
        <ele>92.283235</ele>
        <time>2025-09-29T10:11:37.516Z</time>
      </trkpt>
      <trkpt lat="52.025029" lon="8.876689">
        <ele>92.088088</ele>
        <time>2025-09-29T10:11:48.300Z</time>
      </trkpt>
      <trkpt lat="52.024957" lon="8.875320">
        <ele>91.890363</ele>
        <time>2025-09-29T10:12:11.373Z</time>
      </trkpt>
      <trkpt lat="52.025029" lon="8.876689">
        <ele>92.262266</ele>
        <time>2025-09-29T10:12:34.893Z</time>
      </trkpt>
      <trkpt lat="52.025281" lon="8.876607">
        <ele>92.375318</ele>
        <time>2025-09-29T10:12:40.640Z</time>
      </trkpt>
      <trkpt lat="52.025553" lon="8.876465">
        <ele>92.500991</ele>
        <time>2025-09-29T10:12:47.076Z</time>
      </trkpt>
      <trkpt lat="52.026520" lon="8.875982">
        <ele>92.856808</ele>
        <time>2025-09-29T10:13:09.336Z</time>
      </trkpt>
      <trkpt lat="52.026444" lon="8.875478">
        <ele>92.958360</ele>
        <time>2025-09-29T10:13:16.208Z</time>
      </trkpt>
      <trkpt lat="52.026370" lon="8.874910">
        <ele>93.071982</ele>
        <time>2025-09-29T10:13:23.875Z</time>
      </trkpt>
      <trkpt lat="52.026337" lon="8.874564">
        <ele>93.140503</ele>
        <time>2025-09-29T10:13:28.488Z</time>
      </trkpt>
      <trkpt lat="52.026292" lon="8.873848">
        <ele>93.151935</ele>
        <time>2025-09-29T10:13:37.740Z</time>
      </trkpt>
      <trkpt lat="52.026298" lon="8.872981">
        <ele>93.064235</ele>
        <time>2025-09-29T10:13:48.754Z</time>
      </trkpt>
      <trkpt lat="52.026302" lon="8.872708">
        <ele>93.036614</ele>
        <time>2025-09-29T10:13:52.315Z</time>
      </trkpt>
      <trkpt lat="52.026306" lon="8.872399">
        <ele>93.005353</ele>
        <time>2025-09-29T10:13:56.277Z</time>
      </trkpt>
      <trkpt lat="52.026305" lon="8.871672">
        <ele>92.931819</ele>
        <time>2025-09-29T10:14:05.474Z</time>
      </trkpt>
      <trkpt lat="52.026314" lon="8.871341">
        <ele>92.901297</ele>
        <time>2025-09-29T10:14:09.631Z</time>
      </trkpt>
      <trkpt lat="52.026327" lon="8.870969">
        <ele>92.918491</ele>
        <time>2025-09-29T10:14:14.303Z</time>
      </trkpt>
      <trkpt lat="52.026331" lon="8.870844">
        <ele>92.924266</ele>
        <time>2025-09-29T10:14:15.881Z</time>
      </trkpt>
      <trkpt lat="52.026339" lon="8.870633">
        <ele>92.934021</ele>
        <time>2025-09-29T10:14:18.536Z</time>
      </trkpt>
      <trkpt lat="52.026345" lon="8.870484">
        <ele>92.940911</ele>
        <time>2025-09-29T10:14:20.420Z</time>
      </trkpt>
      <trkpt lat="52.026390" lon="8.869591">
        <ele>92.982255</ele>
        <time>2025-09-29T10:14:32.071Z</time>
      </trkpt>
      <trkpt lat="52.026414" lon="8.869093">
        <ele>93.005305</ele>
        <time>2025-09-29T10:14:38.658Z</time>
      </trkpt>
      <trkpt lat="52.026435" lon="8.868677">
        <ele>93.024565</ele>
        <time>2025-09-29T10:14:44.240Z</time>
      </trkpt>
      <trkpt lat="52.026444" lon="8.868506">
        <ele>93.032485</ele>
        <time>2025-09-29T10:14:46.573Z</time>
      </trkpt>
      <trkpt lat="52.026474" lon="8.867902">
        <ele>93.169268</ele>
        <time>2025-09-29T10:14:54.893Z</time>
      </trkpt>
      <trkpt lat="52.026499" lon="8.867399">
        <ele>93.293116</ele>
        <time>2025-09-29T10:15:01.763Z</time>
      </trkpt>
      <trkpt lat="52.026501" lon="8.867356">
        <ele>93.303699</ele>
        <time>2025-09-29T10:15:02.333Z</time>
      </trkpt>
      <trkpt lat="52.026582" lon="8.866146">
        <ele>93.602409</ele>
        <time>2025-09-29T10:15:18.674Z</time>
      </trkpt>
      <trkpt lat="52.026592" lon="8.865806">
        <ele>93.685946</ele>
        <time>2025-09-29T10:15:23.173Z</time>
      </trkpt>
      <trkpt lat="52.026601" lon="8.865171">
        <ele>93.691879</ele>
        <time>2025-09-29T10:15:31.478Z</time>
      </trkpt>
      <trkpt lat="52.026519" lon="8.864529">
        <ele>93.582192</ele>
        <time>2025-09-29T10:15:39.747Z</time>
      </trkpt>
      <trkpt lat="52.026448" lon="8.864012">
        <ele>93.493577</ele>
        <time>2025-09-29T10:15:46.245Z</time>
      </trkpt>
      <trkpt lat="52.026306" lon="8.862981">
        <ele>93.316837</ele>
        <time>2025-09-29T10:15:59.469Z</time>
      </trkpt>
      <trkpt lat="52.026258" lon="8.862304">
        <ele>93.233424</ele>
        <time>2025-09-29T10:16:08.169Z</time>
      </trkpt>
      <trkpt lat="52.026291" lon="8.859989">
        <ele>93.040902</ele>
        <time>2025-09-29T10:16:38.333Z</time>
      </trkpt>
      <trkpt lat="52.026263" lon="8.859241">
        <ele>92.615795</ele>
        <time>2025-09-29T10:16:47.770Z</time>
      </trkpt>
      <trkpt lat="52.026170" lon="8.857847">
        <ele>91.492530</ele>
        <time>2025-09-29T10:17:03.720Z</time>
      </trkpt>
      <trkpt lat="52.026086" lon="8.857528">
        <ele>91.214564</ele>
        <time>2025-09-29T10:17:07.510Z</time>
      </trkpt>
      <trkpt lat="52.025958" lon="8.857468">
        <ele>91.041121</ele>
        <time>2025-09-29T10:17:09.862Z</time>
      </trkpt>
      <trkpt lat="52.025242" lon="8.857558">
        <ele>90.217167</ele>
        <time>2025-09-29T10:17:22.510Z</time>
      </trkpt>
      <trkpt lat="52.025111" lon="8.857572">
        <ele>90.079377</ele>
        <time>2025-09-29T10:17:24.879Z</time>
      </trkpt>
      <trkpt lat="52.024728" lon="8.857641">
        <ele>89.674932</ele>
        <time>2025-09-29T10:17:32.090Z</time>
      </trkpt>
      <trkpt lat="52.024716" lon="8.857643">
        <ele>89.662271</ele>
        <time>2025-09-29T10:17:32.333Z</time>
      </trkpt>
      <trkpt lat="52.023923" lon="8.857686">
        <ele>88.829504</ele>
        <time>2025-09-29T10:17:48.277Z</time>
      </trkpt>
      <trkpt lat="52.023295" lon="8.857775">
        <ele>89.324881</ele>
        <time>2025-09-29T10:18:01.896Z</time>
      </trkpt>
      <trkpt lat="52.023118" lon="8.857834">
        <ele>89.487317</ele>
        <time>2025-09-29T10:18:05.958Z</time>
      </trkpt>
      <trkpt lat="52.022869" lon="8.857943">
        <ele>89.719146</ele>
        <time>2025-09-29T10:18:14.688Z</time>
      </trkpt>
      <trkpt lat="52.022165" lon="8.857761">
        <ele>90.359999</ele>
        <time>2025-09-29T10:18:30.996Z</time>
      </trkpt>
      <trkpt lat="52.021866" lon="8.857691">
        <ele>90.828651</ele>
        <time>2025-09-29T10:18:37.977Z</time>
      </trkpt>
      <trkpt lat="52.021522" lon="8.857245">
        <ele>91.573090</ele>
        <time>2025-09-29T10:18:48.309Z</time>
      </trkpt>
      <trkpt lat="52.021382" lon="8.857139">
        <ele>91.834365</ele>
        <time>2025-09-29T10:18:51.916Z</time>
      </trkpt>
      <trkpt lat="52.019675" lon="8.857096">
        <ele>94.136743</ele>
        <time>2025-09-29T10:19:31.145Z</time>
      </trkpt>
      <trkpt lat="52.018913" lon="8.857078">
        <ele>94.832227</ele>
        <time>2025-09-29T10:19:48.215Z</time>
      </trkpt>
      <trkpt lat="52.018835" lon="8.857052">
        <ele>94.904893</ele>
        <time>2025-09-29T10:19:49.931Z</time>
      </trkpt>
      <trkpt lat="52.018710" lon="8.856889">
        <ele>95.051160</ele>
        <time>2025-09-29T10:19:53.374Z</time>
      </trkpt>
      <trkpt lat="52.018453" lon="8.856265">
        <ele>94.745298</ele>
        <time>2025-09-29T10:20:02.885Z</time>
      </trkpt>
      <trkpt lat="52.018271" lon="8.855680">
        <ele>94.409817</ele>
        <time>2025-09-29T10:20:10.875Z</time>
      </trkpt>
      <trkpt lat="52.018224" lon="8.855332">
        <ele>94.227475</ele>
        <time>2025-09-29T10:20:15.010Z</time>
      </trkpt>
      <trkpt lat="52.018229" lon="8.854796">
        <ele>93.953123</ele>
        <time>2025-09-29T10:20:20.944Z</time>
      </trkpt>
      <trkpt lat="52.018172" lon="8.853938">
        <ele>93.620220</ele>
        <time>2025-09-29T10:20:30.738Z</time>
      </trkpt>
      <trkpt lat="52.018160" lon="8.853869">
        <ele>93.630518</ele>
        <time>2025-09-29T10:20:31.600Z</time>
      </trkpt>
      <trkpt lat="52.018005" lon="8.853211">
        <ele>93.731699</ele>
        <time>2025-09-29T10:20:40.305Z</time>
      </trkpt>
      <trkpt lat="52.017888" lon="8.853010">
        <ele>93.771432</ele>
        <time>2025-09-29T10:20:43.914Z</time>
      </trkpt>
      <trkpt lat="52.017738" lon="8.852831">
        <ele>93.814861</ele>
        <time>2025-09-29T10:20:47.961Z</time>
      </trkpt>
      <trkpt lat="52.017270" lon="8.852352">
        <ele>93.943931</ele>
        <time>2025-09-29T10:21:00.277Z</time>
      </trkpt>
      <trkpt lat="52.017178" lon="8.852191">
        <ele>93.975483</ele>
        <time>2025-09-29T10:21:03.377Z</time>
      </trkpt>
      <trkpt lat="52.017086" lon="8.851965">
        <ele>94.014397</ele>
        <time>2025-09-29T10:21:07.225Z</time>
      </trkpt>
      <trkpt lat="52.016948" lon="8.851505">
        <ele>94.174309</ele>
        <time>2025-09-29T10:21:14.492Z</time>
      </trkpt>
      <trkpt lat="52.016830" lon="8.851272">
        <ele>94.269818</ele>
        <time>2025-09-29T10:21:18.726Z</time>
      </trkpt>
      <trkpt lat="52.016073" lon="8.851276">
        <ele>94.659152</ele>
        <time>2025-09-29T10:21:35.505Z</time>
      </trkpt>
      <trkpt lat="52.015833" lon="8.848498">
        <ele>94.899370</ele>
        <time>2025-09-29T10:22:10.517Z</time>
      </trkpt>
      <trkpt lat="52.015699" lon="8.848035">
        <ele>94.888198</ele>
        <time>2025-09-29T10:22:17.127Z</time>
      </trkpt>
      <trkpt lat="52.014470" lon="8.844877">
        <ele>96.656245</ele>
        <time>2025-09-29T10:23:08.691Z</time>
      </trkpt>
      <trkpt lat="52.013836" lon="8.843249">
        <ele>97.856749</ele>
        <time>2025-09-29T10:23:35.562Z</time>
      </trkpt>
      <trkpt lat="52.013637" lon="8.842762">
        <ele>98.221017</ele>
        <time>2025-09-29T10:23:43.594Z</time>
      </trkpt>
      <trkpt lat="52.013219" lon="8.841734">
        <ele>98.762496</ele>
        <time>2025-09-29T10:24:00.425Z</time>
      </trkpt>
      <trkpt lat="52.012887" lon="8.840904">
        <ele>99.182517</ele>
        <time>2025-09-29T10:24:13.795Z</time>
      </trkpt>
      <trkpt lat="52.011781" lon="8.838085">
        <ele>100.793366</ele>
        <time>2025-09-29T10:24:59.701Z</time>
      </trkpt>
      <trkpt lat="52.011674" lon="8.837794">
        <ele>100.962782</ele>
        <time>2025-09-29T10:25:04.386Z</time>
      </trkpt>
      <trkpt lat="52.011687" lon="8.837700">
        <ele>100.999974</ele>
        <time>2025-09-29T10:25:05.717Z</time>
      </trkpt>
      <trkpt lat="52.011659" lon="8.837678">
        <ele>101.016250</ele>
        <time>2025-09-29T10:25:06.415Z</time>
      </trkpt>
      <trkpt lat="52.011635" lon="8.837658">
        <ele>101.030365</ele>
        <time>2025-09-29T10:25:07.020Z</time>
      </trkpt>
      <trkpt lat="52.010906" lon="8.835864">
        <ele>101.722776</ele>
        <time>2025-09-29T10:25:36.352Z</time>
      </trkpt>
      <trkpt lat="52.010022" lon="8.833601">
        <ele>101.661532</ele>
        <time>2025-09-29T10:26:10.917Z</time>
      </trkpt>
      <trkpt lat="52.009868" lon="8.833207">
        <ele>101.602775</ele>
        <time>2025-09-29T10:26:16.729Z</time>
      </trkpt>
      <trkpt lat="52.009795" lon="8.832843">
        <ele>101.554579</ele>
        <time>2025-09-29T10:26:21.468Z</time>
      </trkpt>
      <trkpt lat="52.009702" lon="8.831270">
        <ele>100.645403</ele>
        <time>2025-09-29T10:26:40.647Z</time>
      </trkpt>
      <trkpt lat="52.009664" lon="8.831015">
        <ele>100.493792</ele>
        <time>2025-09-29T10:26:43.779Z</time>
      </trkpt>
      <trkpt lat="52.009584" lon="8.830797">
        <ele>100.347129</ele>
        <time>2025-09-29T10:26:46.804Z</time>
      </trkpt>
      <trkpt lat="52.008742" lon="8.829330">
        <ele>98.553829</ele>
        <time>2025-09-29T10:27:09.957Z</time>
      </trkpt>
      <trkpt lat="52.008607" lon="8.829089">
        <ele>98.189088</ele>
        <time>2025-09-29T10:27:13.511Z</time>
      </trkpt>
      <trkpt lat="52.008298" lon="8.828535">
        <ele>97.352265</ele>
        <time>2025-09-29T10:27:21.589Z</time>
      </trkpt>
      <trkpt lat="52.008168" lon="8.828387">
        <ele>97.063599</ele>
        <time>2025-09-29T10:27:24.364Z</time>
      </trkpt>
      <trkpt lat="52.007989" lon="8.828325">
        <ele>96.730780</ele>
        <time>2025-09-29T10:27:27.532Z</time>
      </trkpt>
      <trkpt lat="52.007475" lon="8.828418">
        <ele>95.632086</ele>
        <time>2025-09-29T10:27:36.325Z</time>
      </trkpt>
      <trkpt lat="52.007589" lon="8.828161">
        <ele>95.207701</ele>
        <time>2025-09-29T10:27:39.620Z</time>
      </trkpt>
      <trkpt lat="52.008376" lon="8.826666">
        <ele>92.661975</ele>
        <time>2025-09-29T10:28:00.586Z</time>
      </trkpt>
      <trkpt lat="52.008509" lon="8.826058">
        <ele>92.520020</ele>
        <time>2025-09-29T10:28:07.852Z</time>
      </trkpt>
      <trkpt lat="52.008548" lon="8.825864">
        <ele>92.475122</ele>
        <time>2025-09-29T10:28:10.246Z</time>
      </trkpt>
      <trkpt lat="52.008601" lon="8.825622">
        <ele>92.418613</ele>
        <time>2025-09-29T10:28:13.357Z</time>
      </trkpt>
      <trkpt lat="52.008621" lon="8.825274">
        <ele>92.341720</ele>
        <time>2025-09-29T10:28:17.742Z</time>
      </trkpt>
      <trkpt lat="52.008594" lon="8.824957">
        <ele>92.271316</ele>
        <time>2025-09-29T10:28:21.947Z</time>
      </trkpt>
      <trkpt lat="52.008392" lon="8.824243">
        <ele>92.098440</ele>
        <time>2025-09-29T10:28:32.798Z</time>
      </trkpt>
      <trkpt lat="52.007975" lon="8.823273">
        <ele>92.460570</ele>
        <time>2025-09-29T10:28:49.033Z</time>
      </trkpt>
      <trkpt lat="52.007838" lon="8.823071">
        <ele>92.601690</ele>
        <time>2025-09-29T10:28:53.195Z</time>
      </trkpt>
      <trkpt lat="52.007931" lon="8.822794">
        <ele>92.749833</ele>
        <time>2025-09-29T10:28:57.720Z</time>
      </trkpt>
      <trkpt lat="52.008164" lon="8.822683">
        <ele>92.935039</ele>
        <time>2025-09-29T10:29:03.201Z</time>
      </trkpt>
      <trkpt lat="52.009502" lon="8.822263">
        <ele>93.530502</ele>
        <time>2025-09-29T10:29:33.009Z</time>
      </trkpt>
      <trkpt lat="52.010488" lon="8.821838">
        <ele>93.698048</ele>
        <time>2025-09-29T10:29:54.530Z</time>
      </trkpt>
      <trkpt lat="52.010808" lon="8.821682">
        <ele>93.573982</ele>
        <time>2025-09-29T10:30:01.334Z</time>
      </trkpt>
      <trkpt lat="52.012622" lon="8.820794">
        <ele>92.846848</ele>
        <time>2025-09-29T10:30:39.542Z</time>
      </trkpt>
      <trkpt lat="52.013340" lon="8.820373">
        <ele>92.710333</ele>
        <time>2025-09-29T10:30:55.035Z</time>
      </trkpt>
      <trkpt lat="52.013498" lon="8.820247">
        <ele>92.678856</ele>
        <time>2025-09-29T10:30:58.662Z</time>
      </trkpt>
      <trkpt lat="52.013958" lon="8.819691">
        <ele>92.705468</ele>
        <time>2025-09-29T10:31:10.982Z</time>
      </trkpt>
      <trkpt lat="52.014242" lon="8.819448">
        <ele>93.034412</ele>
        <time>2025-09-29T10:31:18.204Z</time>
      </trkpt>
      <trkpt lat="52.014274" lon="8.819007">
        <ele>93.314499</ele>
        <time>2025-09-29T10:31:24.428Z</time>
      </trkpt>
      <trkpt lat="52.014313" lon="8.818871">
        <ele>93.409135</ele>
        <time>2025-09-29T10:31:26.539Z</time>
      </trkpt>
      <trkpt lat="52.014961" lon="8.818217">
        <ele>94.190915</ele>
        <time>2025-09-29T10:31:44.014Z</time>
      </trkpt>
      <trkpt lat="52.016288" lon="8.817533">
        <ele>95.233055</ele>
        <time>2025-09-29T10:32:17.909Z</time>
      </trkpt>
      <trkpt lat="52.017879" lon="8.816559">
        <ele>96.100798</ele>
        <time>2025-09-29T10:32:58.297Z</time>
      </trkpt>
      <trkpt lat="52.019081" lon="8.815813">
        <ele>96.544069</ele>
        <time>2025-09-29T10:33:29.251Z</time>
      </trkpt>
      <trkpt lat="52.019367" lon="8.815531">
        <ele>96.633925</ele>
        <time>2025-09-29T10:33:37.208Z</time>
      </trkpt>
      <trkpt lat="52.019895" lon="8.814817">
        <ele>96.818429</ele>
        <time>2025-09-29T10:33:53.370Z</time>
      </trkpt>
      <trkpt lat="52.020463" lon="8.814471">
        <ele>97.025446</ele>
        <time>2025-09-29T10:34:07.719Z</time>
      </trkpt>
      <trkpt lat="52.020165" lon="8.813140">
        <ele>97.363619</ele>
        <time>2025-09-29T10:34:26.763Z</time>
      </trkpt>
      <trkpt lat="52.020051" lon="8.811951">
        <ele>97.508634</ele>
        <time>2025-09-29T10:34:43.085Z</time>
      </trkpt>
      <trkpt lat="52.019944" lon="8.811385">
        <ele>97.366251</ele>
        <time>2025-09-29T10:34:50.896Z</time>
      </trkpt>
      <trkpt lat="52.019811" lon="8.810639">
        <ele>97.179484</ele>
        <time>2025-09-29T10:35:00.781Z</time>
      </trkpt>
      <trkpt lat="52.019645" lon="8.808326">
        <ele>96.151807</ele>
        <time>2025-09-29T10:35:28.347Z</time>
      </trkpt>
      <trkpt lat="52.019563" lon="8.807847">
        <ele>95.815252</ele>
        <time>2025-09-29T10:35:33.898Z</time>
      </trkpt>
      <trkpt lat="52.019154" lon="8.805996">
        <ele>94.957410</ele>
        <time>2025-09-29T10:35:57.240Z</time>
      </trkpt>
      <trkpt lat="52.018963" lon="8.804979">
        <ele>95.059237</ele>
        <time>2025-09-29T10:36:11.205Z</time>
      </trkpt>
      <trkpt lat="52.018826" lon="8.804419">
        <ele>95.116947</ele>
        <time>2025-09-29T10:36:19.452Z</time>
      </trkpt>
      <trkpt lat="52.018346" lon="8.802464">
        <ele>95.839818</ele>
        <time>2025-09-29T10:36:48.529Z</time>
      </trkpt>
      <trkpt lat="52.018228" lon="8.801850">
        <ele>96.130967</ele>
        <time>2025-09-29T10:36:57.258Z</time>
      </trkpt>
      <trkpt lat="52.017813" lon="8.799282">
        <ele>97.050551</ele>
        <time>2025-09-29T10:37:32.990Z</time>
      </trkpt>
      <trkpt lat="52.017362" lon="8.797095">
        <ele>97.604166</ele>
        <time>2025-09-29T10:38:04.214Z</time>
      </trkpt>
      <trkpt lat="52.016908" lon="8.795143">
        <ele>98.128057</ele>
        <time>2025-09-29T10:38:31.244Z</time>
      </trkpt>
      <trkpt lat="52.016834" lon="8.794896">
        <ele>98.274283</ele>
        <time>2025-09-29T10:38:35.022Z</time>
      </trkpt>
      <trkpt lat="52.016472" lon="8.793707">
        <ele>98.980389</ele>
        <time>2025-09-29T10:38:53.613Z</time>
      </trkpt>
      <trkpt lat="52.016422" lon="8.793450">
        <ele>99.123861</ele>
        <time>2025-09-29T10:38:57.295Z</time>
      </trkpt>
      <trkpt lat="52.016437" lon="8.793171">
        <ele>99.272937</ele>
        <time>2025-09-29T10:39:01.122Z</time>
      </trkpt>
      <trkpt lat="52.016513" lon="8.792807">
        <ele>99.477538</ele>
        <time>2025-09-29T10:39:06.456Z</time>
      </trkpt>
      <trkpt lat="52.016526" lon="8.792582">
        <ele>99.561688</ele>
        <time>2025-09-29T10:39:09.641Z</time>
      </trkpt>
      <trkpt lat="52.016511" lon="8.792451">
        <ele>99.611026</ele>
        <time>2025-09-29T10:39:11.492Z</time>
      </trkpt>
      <trkpt lat="52.016452" lon="8.792242">
        <ele>99.696165</ele>
        <time>2025-09-29T10:39:14.647Z</time>
      </trkpt>
      <trkpt lat="52.016209" lon="8.791672">
        <ele>99.952911</ele>
        <time>2025-09-29T10:39:23.957Z</time>
      </trkpt>
      <trkpt lat="52.015980" lon="8.791079">
        <ele>100.212130</ele>
        <time>2025-09-29T10:39:33.102Z</time>
      </trkpt>
      <trkpt lat="52.016190" lon="8.790489">
        <ele>100.464497</ele>
        <time>2025-09-29T10:39:42.174Z</time>
      </trkpt>
      <trkpt lat="52.016379" lon="8.789953">
        <ele>100.811083</ele>
        <time>2025-09-29T10:39:50.815Z</time>
      </trkpt>
      <trkpt lat="52.016389" lon="8.789927">
        <ele>100.832571</ele>
        <time>2025-09-29T10:39:51.249Z</time>
      </trkpt>
      <trkpt lat="52.016776" lon="8.789072">
        <ele>101.576418</ele>
        <time>2025-09-29T10:40:06.042Z</time>
      </trkpt>
      <trkpt lat="52.016840" lon="8.788927">
        <ele>101.701475</ele>
        <time>2025-09-29T10:40:08.544Z</time>
      </trkpt>
      <trkpt lat="52.016961" lon="8.788653">
        <ele>101.937830</ele>
        <time>2025-09-29T10:40:13.274Z</time>
      </trkpt>
      <trkpt lat="52.017257" lon="8.787905">
        <ele>102.561085</ele>
        <time>2025-09-29T10:40:25.716Z</time>
      </trkpt>
      <trkpt lat="52.017273" lon="8.787804">
        <ele>102.620271</ele>
        <time>2025-09-29T10:40:27.179Z</time>
      </trkpt>
      <trkpt lat="52.017423" lon="8.787598">
        <ele>102.717783</ele>
        <time>2025-09-29T10:40:31.640Z</time>
      </trkpt>
      <trkpt lat="52.017660" lon="8.787347">
        <ele>102.858242</ele>
        <time>2025-09-29T10:40:38.057Z</time>
      </trkpt>
      <trkpt lat="52.017824" lon="8.787186">
        <ele>102.953375</ele>
        <time>2025-09-29T10:40:42.401Z</time>
      </trkpt>
      <trkpt lat="52.017808" lon="8.787143">
        <ele>102.968729</ele>
        <time>2025-09-29T10:40:43.095Z</time>
      </trkpt>
      <trkpt lat="52.017970" lon="8.786984">
        <ele>103.062696</ele>
        <time>2025-09-29T10:40:47.350Z</time>
      </trkpt>
      <trkpt lat="52.018347" lon="8.786611">
        <ele>103.281845</ele>
        <time>2025-09-29T10:40:56.814Z</time>
      </trkpt>
      <trkpt lat="52.018942" lon="8.786060">
        <ele>103.348523</ele>
        <time>2025-09-29T10:41:10.872Z</time>
      </trkpt>
      <trkpt lat="52.019137" lon="8.785905">
        <ele>103.209389</ele>
        <time>2025-09-29T10:41:15.183Z</time>
      </trkpt>
      <trkpt lat="52.019456" lon="8.785540">
        <ele>102.959330</ele>
        <time>2025-09-29T10:41:22.837Z</time>
      </trkpt>
      <trkpt lat="52.019930" lon="8.785091">
        <ele>102.607678</ele>
        <time>2025-09-29T10:41:33.608Z</time>
      </trkpt>
      <trkpt lat="52.020203" lon="8.784831">
        <ele>102.404866</ele>
        <time>2025-09-29T10:41:39.889Z</time>
      </trkpt>
      <trkpt lat="52.020233" lon="8.784752">
        <ele>102.368251</ele>
        <time>2025-09-29T10:41:41.039Z</time>
      </trkpt>
      <trkpt lat="52.020758" lon="8.784240">
        <ele>101.968200</ele>
        <time>2025-09-29T10:41:53.305Z</time>
      </trkpt>
      <trkpt lat="52.021346" lon="8.783668">
        <ele>101.520019</ele>
        <time>2025-09-29T10:42:07.109Z</time>
      </trkpt>
      <trkpt lat="52.021984" lon="8.783039">
        <ele>101.072064</ele>
        <time>2025-09-29T10:42:21.713Z</time>
      </trkpt>
      <trkpt lat="52.022561" lon="8.782477">
        <ele>100.756747</ele>
        <time>2025-09-29T10:42:35.152Z</time>
      </trkpt>
      <trkpt lat="52.022862" lon="8.782263">
        <ele>100.602748</ele>
        <time>2025-09-29T10:42:41.771Z</time>
      </trkpt>
      <trkpt lat="52.022991" lon="8.782146">
        <ele>100.533502</ele>
        <time>2025-09-29T10:42:44.761Z</time>
      </trkpt>
      <trkpt lat="52.023068" lon="8.782020">
        <ele>100.482283</ele>
        <time>2025-09-29T10:42:46.997Z</time>
      </trkpt>
      <trkpt lat="52.023497" lon="8.781603">
        <ele>100.305177</ele>
        <time>2025-09-29T10:42:57.506Z</time>
      </trkpt>
      <trkpt lat="52.024541" lon="8.780603">
        <ele>100.131509</ele>
        <time>2025-09-29T10:43:23.064Z</time>
      </trkpt>
      <trkpt lat="52.025016" lon="8.780138">
        <ele>99.990835</ele>
        <time>2025-09-29T10:43:34.439Z</time>
      </trkpt>
      <trkpt lat="52.025749" lon="8.779449">
        <ele>99.508344</ele>
        <time>2025-09-29T10:43:51.330Z</time>
      </trkpt>
      <trkpt lat="52.025784" lon="8.779483">
        <ele>99.485110</ele>
        <time>2025-09-29T10:43:52.137Z</time>
      </trkpt>
      <trkpt lat="52.026429" lon="8.778915">
        <ele>99.067104</ele>
        <time>2025-09-29T10:44:06.724Z</time>
      </trkpt>
      <trkpt lat="52.026598" lon="8.778676">
        <ele>98.969440</ele>
        <time>2025-09-29T10:44:11.266Z</time>
      </trkpt>
      <trkpt lat="52.027104" lon="8.778140">
        <ele>98.720586</ele>
        <time>2025-09-29T10:44:23.655Z</time>
      </trkpt>
      <trkpt lat="52.027799" lon="8.777474">
        <ele>98.388165</ele>
        <time>2025-09-29T10:44:39.981Z</time>
      </trkpt>
      <trkpt lat="52.028175" lon="8.777105">
        <ele>98.282882</ele>
        <time>2025-09-29T10:44:49.070Z</time>
      </trkpt>
      <trkpt lat="52.028245" lon="8.777037">
        <ele>98.274848</ele>
        <time>2025-09-29T10:44:50.790Z</time>
      </trkpt>
      <trkpt lat="52.028889" lon="8.776424">
        <ele>98.201325</ele>
        <time>2025-09-29T10:45:06.164Z</time>
      </trkpt>
      <trkpt lat="52.028977" lon="8.776333">
        <ele>98.191050</ele>
        <time>2025-09-29T10:45:08.337Z</time>
      </trkpt>
      <trkpt lat="52.029026" lon="8.776161">
        <ele>98.179562</ele>
        <time>2025-09-29T10:45:10.800Z</time>
      </trkpt>
      <trkpt lat="52.029092" lon="8.776101">
        <ele>98.172112</ele>
        <time>2025-09-29T10:45:12.440Z</time>
      </trkpt>
      <trkpt lat="52.028750" lon="8.774434">
        <ele>97.951033</ele>
        <time>2025-09-29T10:45:35.382Z</time>
      </trkpt>
      <trkpt lat="52.028691" lon="8.774190">
        <ele>97.906639</ele>
        <time>2025-09-29T10:45:38.722Z</time>
      </trkpt>
      <trkpt lat="52.028660" lon="8.774060">
        <ele>97.883030</ele>
        <time>2025-09-29T10:45:40.505Z</time>
      </trkpt>
      <trkpt lat="52.027384" lon="8.774188">
        <ele>97.260287</ele>
        <time>2025-09-29T10:46:06.339Z</time>
      </trkpt>
      <trkpt lat="52.027412" lon="8.773873">
        <ele>97.065013</ele>
        <time>2025-09-29T10:46:10.176Z</time>
      </trkpt>
      <trkpt lat="52.027414" lon="8.773388">
        <ele>96.767436</ele>
        <time>2025-09-29T10:46:15.970Z</time>
      </trkpt>
      <trkpt lat="52.027417" lon="8.772874">
        <ele>96.452059</ele>
        <time>2025-09-29T10:46:22.038Z</time>
      </trkpt>
      <trkpt lat="52.027395" lon="8.771778">
        <ele>95.757786</ele>
        <time>2025-09-29T10:46:34.698Z</time>
      </trkpt>
      <trkpt lat="52.027050" lon="8.770026">
        <ele>94.236002</ele>
        <time>2025-09-29T10:46:55.579Z</time>
      </trkpt>
      <trkpt lat="52.027118" lon="8.769818">
        <ele>94.041149</ele>
        <time>2025-09-29T10:46:58.301Z</time>
      </trkpt>
      <trkpt lat="52.026978" lon="8.769573">
        <ele>93.764543</ele>
        <time>2025-09-29T10:47:02.170Z</time>
      </trkpt>
      <trkpt lat="52.026589" lon="8.767797">
        <ele>92.518017</ele>
        <time>2025-09-29T10:47:24.376Z</time>
      </trkpt>
      <trkpt lat="52.026459" lon="8.767143">
        <ele>92.095618</ele>
        <time>2025-09-29T10:47:32.576Z</time>
      </trkpt>
      <trkpt lat="52.026182" lon="8.765751">
        <ele>91.471347</ele>
        <time>2025-09-29T10:47:50.294Z</time>
      </trkpt>
      <trkpt lat="52.026142" lon="8.765553">
        <ele>91.425234</ele>
        <time>2025-09-29T10:47:52.908Z</time>
      </trkpt>
      <trkpt lat="52.026130" lon="8.765494">
        <ele>91.411484</ele>
        <time>2025-09-29T10:47:53.705Z</time>
      </trkpt>
      <trkpt lat="52.026073" lon="8.765215">
        <ele>91.346435</ele>
        <time>2025-09-29T10:47:57.430Z</time>
      </trkpt>
      <trkpt lat="52.025998" lon="8.764840">
        <ele>91.259184</ele>
        <time>2025-09-29T10:48:02.391Z</time>
      </trkpt>
      <trkpt lat="52.025896" lon="8.764345">
        <ele>91.143675</ele>
        <time>2025-09-29T10:48:09.041Z</time>
      </trkpt>
      <trkpt lat="52.025825" lon="8.764001">
        <ele>91.063388</ele>
        <time>2025-09-29T10:48:13.688Z</time>
      </trkpt>
      <trkpt lat="52.025745" lon="8.763614">
        <ele>90.976597</ele>
        <time>2025-09-29T10:48:18.980Z</time>
      </trkpt>
      <trkpt lat="52.025730" lon="8.763543">
        <ele>90.969623</ele>
        <time>2025-09-29T10:48:19.959Z</time>
      </trkpt>
      <trkpt lat="52.025682" lon="8.763314">
        <ele>90.947151</ele>
        <time>2025-09-29T10:48:23.103Z</time>
      </trkpt>
      <trkpt lat="52.025655" lon="8.763184">
        <ele>90.934405</ele>
        <time>2025-09-29T10:48:24.910Z</time>
      </trkpt>
      <trkpt lat="52.025292" lon="8.761418">
        <ele>90.761447</ele>
        <time>2025-09-29T10:48:48.923Z</time>
      </trkpt>
      <trkpt lat="52.025075" lon="8.760342">
        <ele>90.577752</ele>
        <time>2025-09-29T10:49:03.058Z</time>
      </trkpt>
      <trkpt lat="52.025103" lon="8.760327">
        <ele>90.566498</ele>
        <time>2025-09-29T10:49:03.657Z</time>
      </trkpt>
      <trkpt lat="52.025115" lon="8.760229">
        <ele>90.543027</ele>
        <time>2025-09-29T10:49:04.888Z</time>
      </trkpt>
      <trkpt lat="52.025188" lon="8.760147">
        <ele>90.509153</ele>
        <time>2025-09-29T10:49:06.666Z</time>
      </trkpt>
      <trkpt lat="52.025168" lon="8.760068">
        <ele>90.489087</ele>
        <time>2025-09-29T10:49:07.717Z</time>
      </trkpt>
      <trkpt lat="52.025152" lon="8.760006">
        <ele>90.473296</ele>
        <time>2025-09-29T10:49:08.545Z</time>
      </trkpt>
      <trkpt lat="52.025099" lon="8.760006">
        <ele>90.453064</ele>
        <time>2025-09-29T10:49:09.609Z</time>
      </trkpt>
      <trkpt lat="52.025036" lon="8.759950">
        <ele>90.425653</ele>
        <time>2025-09-29T10:49:11.043Z</time>
      </trkpt>
      <trkpt lat="52.024786" lon="8.759008">
        <ele>90.184686</ele>
        <time>2025-09-29T10:49:23.821Z</time>
      </trkpt>
      <trkpt lat="52.024523" lon="8.758021">
        <ele>90.043886</ele>
        <time>2025-09-29T10:49:37.423Z</time>
      </trkpt>
      <trkpt lat="52.024443" lon="8.757858">
        <ele>90.056469</ele>
        <time>2025-09-29T10:49:40.130Z</time>
      </trkpt>
      <trkpt lat="52.024326" lon="8.757714">
        <ele>90.070863</ele>
        <time>2025-09-29T10:49:43.237Z</time>
      </trkpt>
      <trkpt lat="52.024141" lon="8.757571">
        <ele>90.090955</ele>
        <time>2025-09-29T10:49:47.628Z</time>
      </trkpt>
      <trkpt lat="52.022144" lon="8.756110">
        <ele>90.339537</ele>
        <time>2025-09-29T10:50:34.867Z</time>
      </trkpt>
      <trkpt lat="52.021824" lon="8.755790">
        <ele>90.387884</ele>
        <time>2025-09-29T10:50:42.860Z</time>
      </trkpt>
      <trkpt lat="52.020445" lon="8.754193">
        <ele>89.959627</ele>
        <time>2025-09-29T10:51:17.594Z</time>
      </trkpt>
      <trkpt lat="52.019919" lon="8.753585">
        <ele>89.715201</ele>
        <time>2025-09-29T10:51:30.621Z</time>
      </trkpt>
      <trkpt lat="52.019872" lon="8.753673">
        <ele>89.682927</ele>
        <time>2025-09-29T10:51:32.069Z</time>
      </trkpt>
      <trkpt lat="52.019466" lon="8.753179">
        <ele>89.454647</ele>
        <time>2025-09-29T10:51:42.374Z</time>
      </trkpt>
      <trkpt lat="52.018950" lon="8.752553">
        <ele>89.164821</ele>
        <time>2025-09-29T10:51:55.506Z</time>
      </trkpt>
      <trkpt lat="52.018990" lon="8.752478">
        <ele>89.137332</ele>
        <time>2025-09-29T10:51:57.160Z</time>
      </trkpt>
      <trkpt lat="52.017870" lon="8.751234">
        <ele>88.499060</ele>
        <time>2025-09-29T10:52:24.306Z</time>
      </trkpt>
      <trkpt lat="52.017533" lon="8.750817">
        <ele>88.297391</ele>
        <time>2025-09-29T10:52:32.682Z</time>
      </trkpt>
      <trkpt lat="52.017281" lon="8.750556">
        <ele>88.155114</ele>
        <time>2025-09-29T10:52:38.739Z</time>
      </trkpt>
      <trkpt lat="52.016975" lon="8.750284">
        <ele>88.460714</ele>
        <time>2025-09-29T10:52:46.161Z</time>
      </trkpt>
      <trkpt lat="52.016882" lon="8.750208">
        <ele>88.557192</ele>
        <time>2025-09-29T10:52:48.451Z</time>
      </trkpt>
      <trkpt lat="52.016595" lon="8.749997">
        <ele>88.849141</ele>
        <time>2025-09-29T10:52:55.492Z</time>
      </trkpt>
      <trkpt lat="52.016535" lon="8.749953">
        <ele>88.910149</ele>
        <time>2025-09-29T10:52:56.981Z</time>
      </trkpt>
      <trkpt lat="52.015643" lon="8.749429">
        <ele>89.789217</ele>
        <time>2025-09-29T10:53:18.797Z</time>
      </trkpt>
      <trkpt lat="52.015184" lon="8.749241">
        <ele>89.989721</ele>
        <time>2025-09-29T10:53:29.657Z</time>
      </trkpt>
      <trkpt lat="52.015152" lon="8.749098">
        <ele>90.026313</ele>
        <time>2025-09-29T10:53:31.777Z</time>
      </trkpt>
      <trkpt lat="52.015189" lon="8.748875">
        <ele>90.081856</ele>
        <time>2025-09-29T10:53:34.944Z</time>
      </trkpt>
      <trkpt lat="52.015417" lon="8.748178">
        <ele>90.271678</ele>
        <time>2025-09-29T10:53:45.376Z</time>
      </trkpt>
      <trkpt lat="52.015955" lon="8.746886">
        <ele>90.689830</ele>
        <time>2025-09-29T10:54:04.624Z</time>
      </trkpt>
      <trkpt lat="52.015895" lon="8.746814">
        <ele>90.728776</ele>
        <time>2025-09-29T10:54:06.123Z</time>
      </trkpt>
      <trkpt lat="52.015856" lon="8.746750">
        <ele>90.757718</ele>
        <time>2025-09-29T10:54:07.250Z</time>
      </trkpt>
      <trkpt lat="52.015908" lon="8.746576">
        <ele>90.819875</ele>
        <time>2025-09-29T10:54:09.679Z</time>
      </trkpt>
      <trkpt lat="52.015656" lon="8.746104">
        <ele>91.020669</ele>
        <time>2025-09-29T10:54:17.772Z</time>
      </trkpt>
      <trkpt lat="52.015376" lon="8.745449">
        <ele>91.276944</ele>
        <time>2025-09-29T10:54:28.731Z</time>
      </trkpt>
      <trkpt lat="52.015274" lon="8.745337">
        <ele>91.341222</ele>
        <time>2025-09-29T10:54:31.555Z</time>
      </trkpt>
      <trkpt lat="52.014971" lon="8.745185">
        <ele>91.706636</ele>
        <time>2025-09-29T10:54:38.949Z</time>
      </trkpt>
      <trkpt lat="52.014397" lon="8.745049">
        <ele>93.250697</ele>
        <time>2025-09-29T10:54:52.787Z</time>
      </trkpt>
      <trkpt lat="52.013802" lon="8.744941">
        <ele>94.844349</ele>
        <time>2025-09-29T10:55:07.344Z</time>
      </trkpt>
      <trkpt lat="52.013289" lon="8.744792">
        <ele>96.231524</ele>
        <time>2025-09-29T10:55:20.041Z</time>
      </trkpt>
      <trkpt lat="52.012718" lon="8.744468">
        <ele>97.671785</ele>
        <time>2025-09-29T10:55:34.584Z</time>
      </trkpt>
      <trkpt lat="52.012044" lon="8.744095">
        <ele>99.365557</ele>
        <time>2025-09-29T10:55:51.400Z</time>
      </trkpt>
      <trkpt lat="52.011908" lon="8.744077">
        <ele>99.690146</ele>
        <time>2025-09-29T10:55:54.603Z</time>
      </trkpt>
      <trkpt lat="52.011275" lon="8.744243">
        <ele>100.752617</ele>
        <time>2025-09-29T10:56:09.553Z</time>
      </trkpt>
      <trkpt lat="52.011157" lon="8.744404">
        <ele>100.873688</ele>
        <time>2025-09-29T10:56:13.094Z</time>
      </trkpt>
      <trkpt lat="52.010800" lon="8.744009">
        <ele>101.213055</ele>
        <time>2025-09-29T10:56:22.942Z</time>
      </trkpt>
      <trkpt lat="52.010508" lon="8.743826">
        <ele>101.458959</ele>
        <time>2025-09-29T10:56:29.952Z</time>
      </trkpt>
      <trkpt lat="52.009896" lon="8.743620">
        <ele>101.903662</ele>
        <time>2025-09-29T10:56:43.189Z</time>
      </trkpt>
      <trkpt lat="52.009890" lon="8.743534">
        <ele>101.789662</ele>
        <time>2025-09-29T10:56:44.257Z</time>
      </trkpt>
      <trkpt lat="52.009833" lon="8.743445">
        <ele>101.620489</ele>
        <time>2025-09-29T10:56:45.816Z</time>
      </trkpt>
      <trkpt lat="52.009897" lon="8.743097">
        <ele>101.142097</ele>
        <time>2025-09-29T10:56:50.100Z</time>
      </trkpt>
      <trkpt lat="52.010184" lon="8.742186">
        <ele>99.794140</ele>
        <time>2025-09-29T10:57:01.103Z</time>
      </trkpt>
      <trkpt lat="52.010400" lon="8.741621">
        <ele>98.918096</ele>
        <time>2025-09-29T10:57:07.774Z</time>
      </trkpt>
      <trkpt lat="52.010706" lon="8.740735">
        <ele>97.784655</ele>
        <time>2025-09-29T10:57:17.845Z</time>
      </trkpt>
      <trkpt lat="52.010769" lon="8.740476">
        <ele>97.565439</ele>
        <time>2025-09-29T10:57:20.734Z</time>
      </trkpt>
      <trkpt lat="52.010796" lon="8.740280">
        <ele>97.407339</ele>
        <time>2025-09-29T10:57:22.873Z</time>
      </trkpt>
      <trkpt lat="52.010806" lon="8.739932">
        <ele>97.133110</ele>
        <time>2025-09-29T10:57:26.623Z</time>
      </trkpt>
      <trkpt lat="52.010793" lon="8.739683">
        <ele>96.936405</ele>
        <time>2025-09-29T10:57:29.384Z</time>
      </trkpt>
      <trkpt lat="52.010773" lon="8.739533">
        <ele>96.815593</ele>
        <time>2025-09-29T10:57:31.123Z</time>
      </trkpt>
      <trkpt lat="52.010761" lon="8.739455">
        <ele>96.752306</ele>
        <time>2025-09-29T10:57:32.045Z</time>
      </trkpt>
      <trkpt lat="52.010754" lon="8.739414">
        <ele>96.718814</ele>
        <time>2025-09-29T10:57:32.554Z</time>
      </trkpt>
      <trkpt lat="52.010635" lon="8.738737">
        <ele>96.164603</ele>
        <time>2025-09-29T10:57:41.102Z</time>
      </trkpt>
      <trkpt lat="52.010545" lon="8.737975">
        <ele>96.234342</ele>
        <time>2025-09-29T10:57:51.745Z</time>
      </trkpt>
      <trkpt lat="52.010475" lon="8.737063">
        <ele>97.609160</ele>
        <time>2025-09-29T10:58:05.200Z</time>
      </trkpt>
      <trkpt lat="52.010449" lon="8.736899">
        <ele>97.862493</ele>
        <time>2025-09-29T10:58:07.688Z</time>
      </trkpt>
      <trkpt lat="52.010346" lon="8.736391">
        <ele>98.662574</ele>
        <time>2025-09-29T10:58:15.551Z</time>
      </trkpt>
      <trkpt lat="52.010179" lon="8.735919">
        <ele>99.476975</ele>
        <time>2025-09-29T10:58:23.732Z</time>
      </trkpt>
      <trkpt lat="52.009831" lon="8.735296">
        <ele>100.833085</ele>
        <time>2025-09-29T10:58:36.615Z</time>
      </trkpt>
      <trkpt lat="52.009450" lon="8.734454">
        <ele>102.661410</ele>
        <time>2025-09-29T10:58:52.388Z</time>
      </trkpt>
      <trkpt lat="52.009366" lon="8.734191">
        <ele>103.179795</ele>
        <time>2025-09-29T10:58:56.727Z</time>
      </trkpt>
      <trkpt lat="52.009303" lon="8.733903">
        <ele>103.714537</ele>
        <time>2025-09-29T10:59:01.212Z</time>
      </trkpt>
      <trkpt lat="52.009284" lon="8.733424">
        <ele>104.554308</ele>
        <time>2025-09-29T10:59:08.251Z</time>
      </trkpt>
      <trkpt lat="52.009386" lon="8.732990">
        <ele>105.336411</ele>
        <time>2025-09-29T10:59:15.025Z</time>
      </trkpt>
      <trkpt lat="52.009610" lon="8.732348">
        <ele>106.210924</ele>
        <time>2025-09-29T10:59:25.700Z</time>
      </trkpt>
      <trkpt lat="52.009842" lon="8.731683">
        <ele>107.116740</ele>
        <time>2025-09-29T10:59:36.686Z</time>
      </trkpt>
      <trkpt lat="52.009953" lon="8.731279">
        <ele>107.641016</ele>
        <time>2025-09-29T10:59:43.005Z</time>
      </trkpt>
      <trkpt lat="52.010013" lon="8.730884">
        <ele>108.123140</ele>
        <time>2025-09-29T10:59:48.795Z</time>
      </trkpt>
      <trkpt lat="52.009823" lon="8.729177">
        <ele>109.933670</ele>
        <time>2025-09-29T11:00:13.379Z</time>
      </trkpt>
      <trkpt lat="52.009660" lon="8.726780">
        <ele>112.392731</ele>
        <time>2025-09-29T11:00:47.575Z</time>
      </trkpt>
      <trkpt lat="52.009588" lon="8.725737">
        <ele>113.553384</ele>
        <time>2025-09-29T11:01:02.620Z</time>
      </trkpt>
      <trkpt lat="52.009863" lon="8.722643">
        <ele>116.257945</ele>
        <time>2025-09-29T11:01:47.394Z</time>
      </trkpt>
      <trkpt lat="52.010157" lon="8.719637">
        <ele>115.990582</ele>
        <time>2025-09-29T11:02:26.331Z</time>
      </trkpt>
      <trkpt lat="52.010183" lon="8.719469">
        <ele>115.910652</ele>
        <time>2025-09-29T11:02:28.296Z</time>
      </trkpt>
      <trkpt lat="52.010252" lon="8.719274">
        <ele>115.806868</ele>
        <time>2025-09-29T11:02:30.807Z</time>
      </trkpt>
      <trkpt lat="52.010429" lon="8.719149">
        <ele>115.662190</ele>
        <time>2025-09-29T11:02:34.243Z</time>
      </trkpt>
      <trkpt lat="52.013966" lon="8.717487">
        <ele>106.353775</ele>
        <time>2025-09-29T11:03:35.472Z</time>
      </trkpt>
      <trkpt lat="52.014285" lon="8.717327">
        <ele>106.634353</ele>
        <time>2025-09-29T11:03:42.152Z</time>
      </trkpt>
      <trkpt lat="52.014390" lon="8.717211">
        <ele>106.741064</ele>
        <time>2025-09-29T11:03:44.881Z</time>
      </trkpt>
      <trkpt lat="52.014784" lon="8.716211">
        <ele>107.355221</ele>
        <time>2025-09-29T11:04:01.730Z</time>
      </trkpt>
      <trkpt lat="52.014835" lon="8.715841">
        <ele>107.551342</ele>
        <time>2025-09-29T11:04:07.231Z</time>
      </trkpt>
      <trkpt lat="52.014817" lon="8.715472">
        <ele>107.742803</ele>
        <time>2025-09-29T11:04:12.621Z</time>
      </trkpt>
      <trkpt lat="52.014722" lon="8.715176">
        <ele>107.933395</ele>
        <time>2025-09-29T11:04:17.437Z</time>
      </trkpt>
      <trkpt lat="52.014451" lon="8.714722">
        <ele>108.366424</ele>
        <time>2025-09-29T11:04:26.461Z</time>
      </trkpt>
      <trkpt lat="52.013348" lon="8.712955">
        <ele>110.210868</ele>
        <time>2025-09-29T11:05:00.746Z</time>
      </trkpt>
      <trkpt lat="52.013228" lon="8.712674">
        <ele>110.569273</ele>
        <time>2025-09-29T11:05:05.552Z</time>
      </trkpt>
      <trkpt lat="52.013121" lon="8.712322">
        <ele>110.980677</ele>
        <time>2025-09-29T11:05:11.152Z</time>
      </trkpt>
      <trkpt lat="52.012865" lon="8.710983">
        <ele>112.449990</ele>
        <time>2025-09-29T11:05:31.479Z</time>
      </trkpt>
      <trkpt lat="52.012820" lon="8.710725">
        <ele>112.731002</ele>
        <time>2025-09-29T11:05:35.350Z</time>
      </trkpt>
      <trkpt lat="52.012812" lon="8.710477">
        <ele>112.990029</ele>
        <time>2025-09-29T11:05:38.907Z</time>
      </trkpt>
      <trkpt lat="52.012750" lon="8.710436">
        <ele>113.101955</ele>
        <time>2025-09-29T11:05:40.473Z</time>
      </trkpt>
      <trkpt lat="52.012720" lon="8.710289">
        <ele>113.261336</ele>
        <time>2025-09-29T11:05:42.661Z</time>
      </trkpt>
      <trkpt lat="52.012717" lon="8.710204">
        <ele>113.348956</ele>
        <time>2025-09-29T11:05:43.870Z</time>
      </trkpt>
      <trkpt lat="52.012743" lon="8.710122">
        <ele>113.443885</ele>
        <time>2025-09-29T11:05:45.158Z</time>
      </trkpt>
      <trkpt lat="52.012667" lon="8.710030">
        <ele>113.602355</ele>
        <time>2025-09-29T11:05:47.339Z</time>
      </trkpt>
      <trkpt lat="52.012551" lon="8.709499">
        <ele>114.182224</ele>
        <time>2025-09-29T11:05:55.262Z</time>
      </trkpt>
      <trkpt lat="52.012404" lon="8.709061">
        <ele>114.695644</ele>
        <time>2025-09-29T11:06:02.210Z</time>
      </trkpt>
      <trkpt lat="52.012293" lon="8.708811">
        <ele>115.012886</ele>
        <time>2025-09-29T11:06:06.486Z</time>
      </trkpt>
      <trkpt lat="52.011172" lon="8.707144">
        <ele>118.238425</ele>
        <time>2025-09-29T11:06:42.198Z</time>
      </trkpt>
      <trkpt lat="52.011110" lon="8.706943">
        <ele>118.567406</ele>
        <time>2025-09-29T11:06:45.584Z</time>
      </trkpt>
      <trkpt lat="52.011105" lon="8.706803">
        <ele>118.772606</ele>
        <time>2025-09-29T11:06:47.699Z</time>
      </trkpt>
      <trkpt lat="52.010987" lon="8.706769">
        <ele>119.057507</ele>
        <time>2025-09-29T11:06:50.807Z</time>
      </trkpt>
      <trkpt lat="52.010871" lon="8.706793">
        <ele>119.335503</ele>
        <time>2025-09-29T11:06:53.812Z</time>
      </trkpt>
      <trkpt lat="52.010697" lon="8.706764">
        <ele>119.751327</ele>
        <time>2025-09-29T11:06:58.331Z</time>
      </trkpt>
      <trkpt lat="52.010548" lon="8.706534">
        <ele>120.215543</ele>
        <time>2025-09-29T11:07:03.563Z</time>
      </trkpt>
      <trkpt lat="52.010232" lon="8.706548">
        <ele>120.413565</ele>
        <time>2025-09-29T11:07:11.527Z</time>
      </trkpt>
      <trkpt lat="52.009898" lon="8.706472">
        <ele>120.624832</ele>
        <time>2025-09-29T11:07:19.874Z</time>
      </trkpt>
      <trkpt lat="52.009815" lon="8.706443">
        <ele>120.678014</ele>
        <time>2025-09-29T11:07:21.917Z</time>
      </trkpt>
      <trkpt lat="52.009502" lon="8.706162">
        <ele>120.902028</ele>
        <time>2025-09-29T11:07:30.390Z</time>
      </trkpt>
      <trkpt lat="52.009018" lon="8.705397">
        <ele>121.325031</ele>
        <time>2025-09-29T11:07:45.553Z</time>
      </trkpt>
      <trkpt lat="52.009048" lon="8.705271">
        <ele>121.332639</ele>
        <time>2025-09-29T11:07:47.370Z</time>
      </trkpt>
      <trkpt lat="52.009055" lon="8.704980">
        <ele>121.330364</ele>
        <time>2025-09-29T11:07:51.309Z</time>
      </trkpt>
      <trkpt lat="52.008885" lon="8.703959">
        <ele>121.322100</ele>
        <time>2025-09-29T11:08:05.952Z</time>
      </trkpt>
      <trkpt lat="52.008850" lon="8.703620">
        <ele>121.319414</ele>
        <time>2025-09-29T11:08:10.839Z</time>
      </trkpt>
      <trkpt lat="52.008923" lon="8.703299">
        <ele>121.316741</ele>
        <time>2025-09-29T11:08:15.829Z</time>
      </trkpt>
      <trkpt lat="52.009057" lon="8.703019">
        <ele>121.313970</ele>
        <time>2025-09-29T11:08:21.092Z</time>
      </trkpt>
      <trkpt lat="52.009108" lon="8.702837">
        <ele>121.312407</ele>
        <time>2025-09-29T11:08:24.066Z</time>
      </trkpt>
      <trkpt lat="52.009146" lon="8.702092">
        <ele>121.658874</ele>
        <time>2025-09-29T11:08:35.408Z</time>
      </trkpt>
      <trkpt lat="52.008950" lon="8.702037">
        <ele>121.871936</ele>
        <time>2025-09-29T11:08:40.327Z</time>
      </trkpt>
      <trkpt lat="52.008759" lon="8.701979">
        <ele>122.080077</ele>
        <time>2025-09-29T11:08:45.121Z</time>
      </trkpt>
      <trkpt lat="52.008120" lon="8.701784">
        <ele>122.776539</ele>
        <time>2025-09-29T11:09:01.163Z</time>
      </trkpt>
      <trkpt lat="52.008014" lon="8.702598">
        <ele>123.244542</ele>
        <time>2025-09-29T11:09:12.674Z</time>
      </trkpt>
      <trkpt lat="52.007962" lon="8.702571">
        <ele>123.249312</ele>
        <time>2025-09-29T11:09:13.936Z</time>
      </trkpt>
      <trkpt lat="52.007954" lon="8.702746">
        <ele>123.258751</ele>
        <time>2025-09-29T11:09:16.293Z</time>
      </trkpt>
      <trkpt lat="52.007272" lon="8.707535">
        <ele>123.245219</ele>
        <time>2025-09-29T11:10:19.379Z</time>
      </trkpt>
      <trkpt lat="52.007314" lon="8.707555">
        <ele>123.240778</ele>
        <time>2025-09-29T11:10:20.328Z</time>
      </trkpt>
      <trkpt lat="52.006962" lon="8.710078">
        <ele>123.133135</ele>
        <time>2025-09-29T11:10:53.903Z</time>
      </trkpt>
      <trkpt lat="52.006860" lon="8.710806">
        <ele>123.105437</ele>
        <time>2025-09-29T11:11:03.454Z</time>
      </trkpt>
      <trkpt lat="52.006814" lon="8.711140">
        <ele>122.983028</ele>
        <time>2025-09-29T11:11:07.817Z</time>
      </trkpt>
      <trkpt lat="52.006784" lon="8.711358">
        <ele>122.891335</ele>
        <time>2025-09-29T11:11:10.660Z</time>
      </trkpt>
      <trkpt lat="52.006701" lon="8.711333">
        <ele>122.835045</ele>
        <time>2025-09-29T11:11:12.457Z</time>
      </trkpt>
      <trkpt lat="52.006671" lon="8.711547">
        <ele>122.744953</ele>
        <time>2025-09-29T11:11:15.225Z</time>
      </trkpt>
      <trkpt lat="52.006521" lon="8.712624">
        <ele>122.291693</ele>
        <time>2025-09-29T11:11:28.710Z</time>
      </trkpt>
      <trkpt lat="52.006487" lon="8.712853">
        <ele>122.194998</ele>
        <time>2025-09-29T11:11:31.527Z</time>
      </trkpt>
      <trkpt lat="52.006482" lon="8.713124">
        <ele>122.083708</ele>
        <time>2025-09-29T11:11:34.745Z</time>
      </trkpt>
      <trkpt lat="52.006287" lon="8.714304">
        <ele>121.682653</ele>
        <time>2025-09-29T11:11:49.206Z</time>
      </trkpt>
      <trkpt lat="52.006170" lon="8.715123">
        <ele>121.445186</ele>
        <time>2025-09-29T11:11:59.228Z</time>
      </trkpt>
      <trkpt lat="52.006166" lon="8.715326">
        <ele>121.387821</ele>
        <time>2025-09-29T11:12:01.711Z</time>
      </trkpt>
      <trkpt lat="52.006111" lon="8.715742">
        <ele>121.267646</ele>
        <time>2025-09-29T11:12:07.036Z</time>
      </trkpt>
      <trkpt lat="52.006035" lon="8.715677">
        <ele>121.228238</ele>
        <time>2025-09-29T11:12:08.880Z</time>
      </trkpt>
      <trkpt lat="52.003793" lon="8.712738">
        <ele>123.160845</ele>
        <time>2025-09-29T11:13:15.424Z</time>
      </trkpt>
      <trkpt lat="52.003758" lon="8.712701">
        <ele>123.198714</ele>
        <time>2025-09-29T11:13:16.398Z</time>
      </trkpt>
      <trkpt lat="52.003090" lon="8.711804">
        <ele>123.984675</ele>
        <time>2025-09-29T11:13:36.633Z</time>
      </trkpt>
      <trkpt lat="52.002451" lon="8.712559">
        <ele>124.227072</ele>
        <time>2025-09-29T11:13:54.626Z</time>
      </trkpt>
      <trkpt lat="52.000778" lon="8.714674">
        <ele>124.729470</ele>
        <time>2025-09-29T11:14:40.691Z</time>
      </trkpt>
      <trkpt lat="52.000195" lon="8.715392">
        <ele>124.947102</ele>
        <time>2025-09-29T11:14:57.512Z</time>
      </trkpt>
      <trkpt lat="51.999989" lon="8.715566">
        <ele>125.069110</ele>
        <time>2025-09-29T11:15:02.904Z</time>
      </trkpt>
      <trkpt lat="51.999767" lon="8.715591">
        <ele>125.217385</ele>
        <time>2025-09-29T11:15:08.096Z</time>
      </trkpt>
      <trkpt lat="51.997979" lon="8.715466">
        <ele>126.018365</ele>
        <time>2025-09-29T11:15:49.000Z</time>
      </trkpt>
      <trkpt lat="51.997863" lon="8.715918">
        <ele>125.888709</ele>
        <time>2025-09-29T11:15:55.173Z</time>
      </trkpt>
      <trkpt lat="51.997735" lon="8.716298">
        <ele>125.774024</ele>
        <time>2025-09-29T11:16:00.513Z</time>
      </trkpt>
      <trkpt lat="51.997398" lon="8.717040">
        <ele>125.529896</ele>
        <time>2025-09-29T11:16:11.570Z</time>
      </trkpt>
      <trkpt lat="51.996100" lon="8.718993">
        <ele>124.248477</ele>
        <time>2025-09-29T11:16:45.966Z</time>
      </trkpt>
      <trkpt lat="51.994215" lon="8.721776">
        <ele>123.335163</ele>
        <time>2025-09-29T11:17:38.518Z</time>
      </trkpt>
      <trkpt lat="51.994145" lon="8.721814">
        <ele>123.310591</ele>
        <time>2025-09-29T11:17:40.026Z</time>
      </trkpt>
      <trkpt lat="51.993918" lon="8.722150">
        <ele>123.208339</ele>
        <time>2025-09-29T11:17:46.247Z</time>
      </trkpt>
      <trkpt lat="51.993905" lon="8.722224">
        <ele>123.192564</ele>
        <time>2025-09-29T11:17:47.204Z</time>
      </trkpt>
      <trkpt lat="51.993730" lon="8.722556">
        <ele>123.102975</ele>
        <time>2025-09-29T11:17:52.631Z</time>
      </trkpt>
      <trkpt lat="51.993498" lon="8.723116">
        <ele>122.964613</ele>
        <time>2025-09-29T11:18:01.119Z</time>
      </trkpt>
      <trkpt lat="51.993390" lon="8.723291">
        <ele>122.913821</ele>
        <time>2025-09-29T11:18:04.260Z</time>
      </trkpt>
      <trkpt lat="51.993194" lon="8.723466">
        <ele>122.877299</ele>
        <time>2025-09-29T11:18:08.882Z</time>
      </trkpt>
      <trkpt lat="51.992956" lon="8.723590">
        <ele>122.884838</ele>
        <time>2025-09-29T11:18:14.097Z</time>
      </trkpt>
      <trkpt lat="51.992906" lon="8.723688">
        <ele>122.887202</ele>
        <time>2025-09-29T11:18:15.729Z</time>
      </trkpt>
      <trkpt lat="51.992827" lon="8.723597">
        <ele>122.890124</ele>
        <time>2025-09-29T11:18:17.792Z</time>
      </trkpt>
      <trkpt lat="51.992763" lon="8.723534">
        <ele>122.892381</ele>
        <time>2025-09-29T11:18:19.353Z</time>
      </trkpt>
      <trkpt lat="51.992671" lon="8.723665">
        <ele>122.896072</ele>
        <time>2025-09-29T11:18:21.964Z</time>
      </trkpt>
      <trkpt lat="51.992484" lon="8.724138">
        <ele>122.906511</ele>
        <time>2025-09-29T11:18:29.386Z</time>
      </trkpt>
      <trkpt lat="51.990719" lon="8.726735">
        <ele>122.772834</ele>
        <time>2025-09-29T11:19:19.820Z</time>
      </trkpt>
      <trkpt lat="51.990605" lon="8.726903">
        <ele>122.753100</ele>
        <time>2025-09-29T11:19:22.884Z</time>
      </trkpt>
      <trkpt lat="51.990477" lon="8.727094">
        <ele>122.656070</ele>
        <time>2025-09-29T11:19:26.304Z</time>
      </trkpt>
      <trkpt lat="51.990504" lon="8.727142">
        <ele>122.633723</ele>
        <time>2025-09-29T11:19:27.084Z</time>
      </trkpt>
      <trkpt lat="51.991085" lon="8.729185">
        <ele>121.860224</ele>
        <time>2025-09-29T11:19:54.590Z</time>
      </trkpt>
      <trkpt lat="51.991134" lon="8.729361">
        <ele>121.793833</ele>
        <time>2025-09-29T11:19:57.111Z</time>
      </trkpt>
      <trkpt lat="51.991605" lon="8.731028">
        <ele>121.308014</ele>
        <time>2025-09-29T11:20:20.487Z</time>
      </trkpt>
      <trkpt lat="51.991773" lon="8.731611">
        <ele>121.140806</ele>
        <time>2025-09-29T11:20:28.441Z</time>
      </trkpt>
      <trkpt lat="51.991955" lon="8.732248">
        <ele>120.936458</ele>
        <time>2025-09-29T11:20:36.924Z</time>
      </trkpt>
      <trkpt lat="51.993205" lon="8.736604">
        <ele>118.855841</ele>
        <time>2025-09-29T11:21:35.903Z</time>
      </trkpt>
      <trkpt lat="51.993971" lon="8.739255">
        <ele>116.792435</ele>
        <time>2025-09-29T11:22:10.970Z</time>
      </trkpt>
      <trkpt lat="51.994425" lon="8.741493">
        <ele>113.912639</ele>
        <time>2025-09-29T11:22:36.363Z</time>
      </trkpt>
      <trkpt lat="51.994481" lon="8.741867">
        <ele>113.347072</ele>
        <time>2025-09-29T11:22:40.380Z</time>
      </trkpt>
      <trkpt lat="51.994789" lon="8.745339">
        <ele>107.457444</ele>
        <time>2025-09-29T11:23:16.393Z</time>
      </trkpt>
      <trkpt lat="51.994813" lon="8.745449">
        <ele>107.250892</ele>
        <time>2025-09-29T11:23:17.582Z</time>
      </trkpt>
      <trkpt lat="51.994912" lon="8.745612">
        <ele>106.845662</ele>
        <time>2025-09-29T11:23:19.879Z</time>
      </trkpt>
      <trkpt lat="51.995461" lon="8.746095">
        <ele>104.987331</ele>
        <time>2025-09-29T11:23:29.991Z</time>
      </trkpt>
      <trkpt lat="51.995528" lon="8.746191">
        <ele>104.720081</ele>
        <time>2025-09-29T11:23:31.428Z</time>
      </trkpt>
      <trkpt lat="51.995568" lon="8.746336">
        <ele>104.427456</ele>
        <time>2025-09-29T11:23:32.991Z</time>
      </trkpt>
      <trkpt lat="51.995568" lon="8.746750">
        <ele>103.664987</ele>
        <time>2025-09-29T11:23:37.103Z</time>
      </trkpt>
      <trkpt lat="51.995561" lon="8.747711">
        <ele>101.894979</ele>
        <time>2025-09-29T11:23:46.901Z</time>
      </trkpt>
      <trkpt lat="51.995597" lon="8.747986">
        <ele>101.377188</ele>
        <time>2025-09-29T11:23:49.822Z</time>
      </trkpt>
      <trkpt lat="51.995686" lon="8.748064">
        <ele>101.144774</ele>
        <time>2025-09-29T11:23:51.567Z</time>
      </trkpt>
      <trkpt lat="51.995798" lon="8.748080">
        <ele>100.953352</ele>
        <time>2025-09-29T11:23:53.503Z</time>
      </trkpt>
      <trkpt lat="51.996294" lon="8.748050">
        <ele>100.108298</ele>
        <time>2025-09-29T11:24:02.324Z</time>
      </trkpt>
      <trkpt lat="51.996417" lon="8.748091">
        <ele>99.894519</ele>
        <time>2025-09-29T11:24:04.638Z</time>
      </trkpt>
      <trkpt lat="51.996622" lon="8.748266">
        <ele>99.500220</ele>
        <time>2025-09-29T11:24:08.951Z</time>
      </trkpt>
      <trkpt lat="51.996805" lon="8.748260">
        <ele>99.188589</ele>
        <time>2025-09-29T11:24:12.327Z</time>
      </trkpt>
      <trkpt lat="51.996986" lon="8.748163">
        <ele>98.864084</ele>
        <time>2025-09-29T11:24:15.899Z</time>
      </trkpt>
      <trkpt lat="51.997166" lon="8.748197">
        <ele>98.555558</ele>
        <time>2025-09-29T11:24:19.301Z</time>
      </trkpt>
      <trkpt lat="51.997274" lon="8.748378">
        <ele>98.291342</ele>
        <time>2025-09-29T11:24:22.158Z</time>
      </trkpt>
      <trkpt lat="51.997290" lon="8.748554">
        <ele>98.137170</ele>
        <time>2025-09-29T11:24:24.168Z</time>
      </trkpt>
      <trkpt lat="51.997194" lon="8.749170">
        <ele>97.777622</ele>
        <time>2025-09-29T11:24:31.348Z</time>
      </trkpt>
      <trkpt lat="51.997188" lon="8.749218">
        <ele>97.749908</ele>
        <time>2025-09-29T11:24:31.891Z</time>
      </trkpt>
      <trkpt lat="51.996976" lon="8.750646">
        <ele>96.918733</ele>
        <time>2025-09-29T11:24:49.322Z</time>
      </trkpt>
      <trkpt lat="51.996947" lon="8.750827">
        <ele>96.812905</ele>
        <time>2025-09-29T11:24:51.642Z</time>
      </trkpt>
      <trkpt lat="51.996884" lon="8.751276">
        <ele>96.552328</ele>
        <time>2025-09-29T11:24:57.466Z</time>
      </trkpt>
      <trkpt lat="51.996840" lon="8.751551">
        <ele>96.527624</ele>
        <time>2025-09-29T11:25:01.112Z</time>
      </trkpt>
      <trkpt lat="51.996329" lon="8.755008">
        <ele>97.449570</ele>
        <time>2025-09-29T11:25:47.773Z</time>
      </trkpt>
      <trkpt lat="51.996287" lon="8.755423">
        <ele>97.866666</ele>
        <time>2025-09-29T11:25:53.621Z</time>
      </trkpt>
      <trkpt lat="51.996280" lon="8.755539">
        <ele>97.982260</ele>
        <time>2025-09-29T11:25:55.255Z</time>
      </trkpt>
      <trkpt lat="51.996277" lon="8.755786">
        <ele>98.227268</ele>
        <time>2025-09-29T11:25:58.752Z</time>
      </trkpt>
      <trkpt lat="51.996431" lon="8.759679">
        <ele>103.873638</ele>
        <time>2025-09-29T11:26:56.757Z</time>
      </trkpt>
      <trkpt lat="51.996433" lon="8.759763">
        <ele>104.013852</ele>
        <time>2025-09-29T11:26:57.981Z</time>
      </trkpt>
      <trkpt lat="51.996450" lon="8.760144">
        <ele>104.528715</ele>
        <time>2025-09-29T11:27:03.527Z</time>
      </trkpt>
      <trkpt lat="51.996437" lon="8.760404">
        <ele>104.779889</ele>
        <time>2025-09-29T11:27:07.263Z</time>
      </trkpt>
      <trkpt lat="51.996297" lon="8.761336">
        <ele>105.703622</ele>
        <time>2025-09-29T11:27:20.748Z</time>
      </trkpt>
      <trkpt lat="51.996010" lon="8.762864">
        <ele>107.237524</ele>
        <time>2025-09-29T11:27:43.128Z</time>
      </trkpt>
      <trkpt lat="51.995624" lon="8.764743">
        <ele>109.022086</ele>
        <time>2025-09-29T11:28:11.189Z</time>
      </trkpt>
      <trkpt lat="51.995398" lon="8.765696">
        <ele>109.957043</ele>
        <time>2025-09-29T11:28:25.551Z</time>
      </trkpt>
      <trkpt lat="51.994014" lon="8.770379">
        <ele>114.820311</ele>
        <time>2025-09-29T11:29:39.383Z</time>
      </trkpt>
      <trkpt lat="51.993918" lon="8.770826">
        <ele>115.229193</ele>
        <time>2025-09-29T11:29:46.094Z</time>
      </trkpt>
      <trkpt lat="51.993717" lon="8.772367">
        <ele>114.390265</ele>
        <time>2025-09-29T11:30:06.316Z</time>
      </trkpt>
      <trkpt lat="51.993655" lon="8.772834">
        <ele>114.125695</ele>
        <time>2025-09-29T11:30:11.815Z</time>
      </trkpt>
      <trkpt lat="51.993608" lon="8.773614">
        <ele>113.691662</ele>
        <time>2025-09-29T11:30:20.222Z</time>
      </trkpt>
      <trkpt lat="51.993537" lon="8.775310">
        <ele>110.517078</ele>
        <time>2025-09-29T11:30:37.232Z</time>
      </trkpt>
      <trkpt lat="51.993468" lon="8.776837">
        <ele>107.611144</ele>
        <time>2025-09-29T11:30:52.365Z</time>
      </trkpt>
      <trkpt lat="51.993389" lon="8.777473">
        <ele>106.630346</ele>
        <time>2025-09-29T11:30:58.925Z</time>
      </trkpt>
      <trkpt lat="51.993323" lon="8.777745">
        <ele>106.188393</ele>
        <time>2025-09-29T11:31:01.966Z</time>
      </trkpt>
      <trkpt lat="51.993232" lon="8.777998">
        <ele>105.745465</ele>
        <time>2025-09-29T11:31:05.080Z</time>
      </trkpt>
      <trkpt lat="51.993057" lon="8.778347">
        <ele>105.065081</ele>
        <time>2025-09-29T11:31:09.889Z</time>
      </trkpt>
      <trkpt lat="51.992801" lon="8.778704">
        <ele>104.236681</ele>
        <time>2025-09-29T11:31:15.738Z</time>
      </trkpt>
      <trkpt lat="51.992378" lon="8.779243">
        <ele>103.207598</ele>
        <time>2025-09-29T11:31:25.431Z</time>
      </trkpt>
      <trkpt lat="51.992146" lon="8.779534">
        <ele>102.846382</ele>
        <time>2025-09-29T11:31:30.898Z</time>
      </trkpt>
      <trkpt lat="51.992060" lon="8.779695">
        <ele>102.684662</ele>
        <time>2025-09-29T11:31:33.361Z</time>
      </trkpt>
      <trkpt lat="51.991987" lon="8.779937">
        <ele>102.480191</ele>
        <time>2025-09-29T11:31:36.484Z</time>
      </trkpt>
      <trkpt lat="51.991748" lon="8.781274">
        <ele>101.423835</ele>
        <time>2025-09-29T11:31:52.931Z</time>
      </trkpt>
      <trkpt lat="51.991723" lon="8.781700">
        <ele>101.172777</ele>
        <time>2025-09-29T11:31:58.241Z</time>
      </trkpt>
      <trkpt lat="51.991657" lon="8.782732">
        <ele>100.698430</ele>
        <time>2025-09-29T11:32:11.010Z</time>
      </trkpt>
      <trkpt lat="51.991643" lon="8.782948">
        <ele>100.599133</ele>
        <time>2025-09-29T11:32:13.675Z</time>
      </trkpt>
      <trkpt lat="51.991589" lon="8.783790">
        <ele>100.212105</ele>
        <time>2025-09-29T11:32:24.087Z</time>
      </trkpt>
      <trkpt lat="51.991527" lon="8.784980">
        <ele>99.678077</ele>
        <time>2025-09-29T11:32:38.440Z</time>
      </trkpt>
      <trkpt lat="51.991555" lon="8.785244">
        <ele>99.560782</ele>
        <time>2025-09-29T11:32:41.627Z</time>
      </trkpt>
      <trkpt lat="51.992140" lon="8.786442">
        <ele>98.891325</ele>
        <time>2025-09-29T11:33:00.202Z</time>
      </trkpt>
      <trkpt lat="51.992393" lon="8.786958">
        <ele>98.683864</ele>
        <time>2025-09-29T11:33:08.496Z</time>
      </trkpt>
      <trkpt lat="51.992785" lon="8.787713">
        <ele>98.772053</ele>
        <time>2025-09-29T11:33:21.029Z</time>
      </trkpt>
      <trkpt lat="51.992813" lon="8.787763">
        <ele>98.778089</ele>
        <time>2025-09-29T11:33:23.918Z</time>
      </trkpt>
      <trkpt lat="51.992981" lon="8.788077">
        <ele>98.815234</ele>
        <time>2025-09-29T11:33:41.707Z</time>
      </trkpt>
      <trkpt lat="51.993015" lon="8.788131">
        <ele>98.822131</ele>
        <time>2025-09-29T11:33:45.045Z</time>
      </trkpt>
      <trkpt lat="51.992991" lon="8.788222">
        <ele>98.830971</ele>
        <time>2025-09-29T11:33:49.283Z</time>
      </trkpt>
      <trkpt lat="51.993189" lon="8.788533">
        <ele>98.870919</ele>
        <time>2025-09-29T11:34:08.426Z</time>
      </trkpt>
      <trkpt lat="51.993250" lon="8.788677">
        <ele>98.886526</ele>
        <time>2025-09-29T11:34:15.914Z</time>
      </trkpt>
      <trkpt lat="51.993296" lon="8.788786">
        <ele>98.898327</ele>
        <time>2025-09-29T11:34:21.600Z</time>
      </trkpt>
      <trkpt lat="51.993341" lon="8.788976">
        <ele>98.916505</ele>
        <time>2025-09-29T11:34:25.103Z</time>
      </trkpt>
      <trkpt lat="51.993321" lon="8.789043">
        <ele>98.923154</ele>
        <time>2025-09-29T11:34:26.129Z</time>
      </trkpt>
      <trkpt lat="51.993348" lon="8.789108">
        <ele>98.930155</ele>
        <time>2025-09-29T11:34:27.205Z</time>
      </trkpt>
      <trkpt lat="51.993396" lon="8.789242">
        <ele>99.042475</ele>
        <time>2025-09-29T11:34:29.365Z</time>
      </trkpt>
      <trkpt lat="51.993438" lon="8.789319">
        <ele>99.120863</ele>
        <time>2025-09-29T11:34:31.142Z</time>
      </trkpt>
      <trkpt lat="51.993348" lon="8.789795">
        <ele>99.500307</ele>
        <time>2025-09-29T11:34:39.731Z</time>
      </trkpt>
      <trkpt lat="51.993148" lon="8.790756">
        <ele>100.273324</ele>
        <time>2025-09-29T11:34:53.996Z</time>
      </trkpt>
      <trkpt lat="51.992779" lon="8.791263">
        <ele>100.871497</ele>
        <time>2025-09-29T11:35:05.087Z</time>
      </trkpt>
      <trkpt lat="51.992632" lon="8.791410">
        <ele>101.085143</ele>
        <time>2025-09-29T11:35:09.017Z</time>
      </trkpt>
      <trkpt lat="51.992512" lon="8.791529">
        <ele>101.245352</ele>
        <time>2025-09-29T11:35:12.223Z</time>
      </trkpt>
      <trkpt lat="51.992458" lon="8.791634">
        <ele>101.335539</ele>
        <time>2025-09-29T11:35:14.144Z</time>
      </trkpt>
      <trkpt lat="51.992766" lon="8.791845">
        <ele>101.693424</ele>
        <time>2025-09-29T11:35:21.733Z</time>
      </trkpt>
      <trkpt lat="51.992653" lon="8.792347">
        <ele>102.045782</ele>
        <time>2025-09-29T11:35:30.952Z</time>
      </trkpt>
      <trkpt lat="51.992590" lon="8.792628">
        <ele>102.242925</ele>
        <time>2025-09-29T11:35:36.130Z</time>
      </trkpt>
      <trkpt lat="51.992466" lon="8.793171">
        <ele>102.624718</ele>
        <time>2025-09-29T11:35:46.107Z</time>
      </trkpt>
      <trkpt lat="51.991851" lon="8.793098">
        <ele>103.109955</ele>
        <time>2025-09-29T11:36:03.375Z</time>
      </trkpt>
      <trkpt lat="51.991333" lon="8.792806">
        <ele>103.189553</ele>
        <time>2025-09-29T11:36:18.670Z</time>
      </trkpt>
      <trkpt lat="51.991851" lon="8.793098">
        <ele>103.269151</ele>
        <time>2025-09-29T11:36:33.698Z</time>
      </trkpt>
      <trkpt lat="51.991846" lon="8.793435">
        <ele>103.299284</ele>
        <time>2025-09-29T11:36:39.285Z</time>
      </trkpt>
      <trkpt lat="51.991879" lon="8.794036">
        <ele>103.333698</ele>
        <time>2025-09-29T11:36:49.317Z</time>
      </trkpt>
      <trkpt lat="51.991792" lon="8.794552">
        <ele>103.284310</ele>
        <time>2025-09-29T11:36:58.228Z</time>
      </trkpt>
      <trkpt lat="51.992095" lon="8.794651">
        <ele>103.237976</ele>
        <time>2025-09-29T11:37:04.479Z</time>
      </trkpt>
      <trkpt lat="51.991638" lon="8.795152">
        <ele>103.155314</ele>
        <time>2025-09-29T11:37:19.583Z</time>
      </trkpt>
      <trkpt lat="51.991391" lon="8.795413">
        <ele>103.111136</ele>
        <time>2025-09-29T11:37:27.745Z</time>
      </trkpt>
      <trkpt lat="51.991302" lon="8.795506">
        <ele>103.095270</ele>
        <time>2025-09-29T11:37:30.668Z</time>
      </trkpt>
      <trkpt lat="51.991043" lon="8.795748">
        <ele>103.112274</ele>
        <time>2025-09-29T11:37:38.978Z</time>
      </trkpt>
      <trkpt lat="51.991001" lon="8.795786">
        <ele>103.124023</ele>
        <time>2025-09-29T11:37:40.313Z</time>
      </trkpt>
      <trkpt lat="51.990950" lon="8.795834">
        <ele>103.138429</ele>
        <time>2025-09-29T11:37:41.938Z</time>
      </trkpt>
      <trkpt lat="51.990655" lon="8.796112">
        <ele>103.221784</ele>
        <time>2025-09-29T11:37:51.402Z</time>
      </trkpt>
      <trkpt lat="51.990578" lon="8.796099">
        <ele>103.240703</ele>
        <time>2025-09-29T11:37:56.796Z</time>
      </trkpt>
      <trkpt lat="51.990552" lon="8.796141">
        <ele>103.249666</ele>
        <time>2025-09-29T11:37:57.806Z</time>
      </trkpt>
      <trkpt lat="51.990578" lon="8.796099">
        <ele>103.258628</ele>
        <time>2025-09-29T11:37:58.825Z</time>
      </trkpt>
      <trkpt lat="51.990655" lon="8.796112">
        <ele>103.277548</ele>
        <time>2025-09-29T11:38:04.219Z</time>
      </trkpt>
      <trkpt lat="51.990760" lon="8.796271">
        <ele>103.312634</ele>
        <time>2025-09-29T11:38:07.317Z</time>
      </trkpt>
      <trkpt lat="51.991186" lon="8.796767">
        <ele>103.440738</ele>
        <time>2025-09-29T11:38:18.644Z</time>
      </trkpt>
      <trkpt lat="51.991535" lon="8.797171">
        <ele>103.557414</ele>
        <time>2025-09-29T11:38:27.793Z</time>
      </trkpt>
      <trkpt lat="51.992073" lon="8.797763">
        <ele>103.775571</ele>
        <time>2025-09-29T11:38:41.806Z</time>
      </trkpt>
      <trkpt lat="51.992740" lon="8.798510">
        <ele>104.047558</ele>
        <time>2025-09-29T11:38:59.515Z</time>
      </trkpt>
      <trkpt lat="51.993029" lon="8.798834">
        <ele>104.143574</ele>
        <time>2025-09-29T11:39:07.068Z</time>
      </trkpt>
      <trkpt lat="51.993110" lon="8.798957">
        <ele>104.163879</ele>
        <time>2025-09-29T11:39:09.446Z</time>
      </trkpt>
      <trkpt lat="51.993037" lon="8.799103">
        <ele>104.185084</ele>
        <time>2025-09-29T11:39:11.942Z</time>
      </trkpt>
      <trkpt lat="51.993081" lon="8.799236">
        <ele>104.202107</ele>
        <time>2025-09-29T11:39:14.526Z</time>
      </trkpt>
      <trkpt lat="51.993178" lon="8.799154">
        <ele>104.222130</ele>
        <time>2025-09-29T11:39:17.576Z</time>
      </trkpt>
      <trkpt lat="51.993314" lon="8.799588">
        <ele>104.277034</ele>
        <time>2025-09-29T11:39:24.124Z</time>
      </trkpt>
      <trkpt lat="51.993408" lon="8.799912">
        <ele>104.317415</ele>
        <time>2025-09-29T11:39:28.894Z</time>
      </trkpt>
      <trkpt lat="51.993564" lon="8.800396">
        <ele>104.379008</ele>
        <time>2025-09-29T11:39:36.050Z</time>
      </trkpt>
      <trkpt lat="51.993597" lon="8.800499">
        <ele>104.392099</ele>
        <time>2025-09-29T11:39:37.576Z</time>
      </trkpt>
      <trkpt lat="51.993688" lon="8.800555">
        <ele>104.409918</ele>
        <time>2025-09-29T11:39:39.607Z</time>
      </trkpt>
      <trkpt lat="51.993789" lon="8.800932">
        <ele>104.433617</ele>
        <time>2025-09-29T11:39:44.881Z</time>
      </trkpt>
      <trkpt lat="51.993369" lon="8.801324">
        <ele>104.313069</ele>
        <time>2025-09-29T11:39:54.921Z</time>
      </trkpt>
      <trkpt lat="51.992526" lon="8.802116">
        <ele>104.070715</ele>
        <time>2025-09-29T11:40:14.760Z</time>
      </trkpt>
      <trkpt lat="51.992492" lon="8.802148">
        <ele>104.060936</ele>
        <time>2025-09-29T11:40:15.559Z</time>
      </trkpt>
      <trkpt lat="51.992278" lon="8.802342">
        <ele>103.999946</ele>
        <time>2025-09-29T11:40:20.584Z</time>
      </trkpt>
      <trkpt lat="51.991841" lon="8.802743">
        <ele>104.152858</ele>
        <time>2025-09-29T11:40:31.181Z</time>
      </trkpt>
      <trkpt lat="51.991755" lon="8.802821">
        <ele>104.183248</ele>
        <time>2025-09-29T11:40:33.288Z</time>
      </trkpt>
      <trkpt lat="51.991648" lon="8.802919">
        <ele>104.221149</ele>
        <time>2025-09-29T11:40:35.901Z</time>
      </trkpt>
      <trkpt lat="51.991499" lon="8.803059">
        <ele>104.274259</ele>
        <time>2025-09-29T11:40:39.607Z</time>
      </trkpt>
      <trkpt lat="51.991451" lon="8.803105">
        <ele>104.291454</ele>
        <time>2025-09-29T11:40:40.826Z</time>
      </trkpt>
      <trkpt lat="51.991246" lon="8.803297">
        <ele>104.364466</ele>
        <time>2025-09-29T11:40:45.920Z</time>
      </trkpt>
      <trkpt lat="51.990825" lon="8.803699">
        <ele>104.515145</ele>
        <time>2025-09-29T11:40:56.679Z</time>
      </trkpt>
      <trkpt lat="51.990663" lon="8.803854">
        <ele>104.637480</ele>
        <time>2025-09-29T11:41:00.860Z</time>
      </trkpt>
      <trkpt lat="51.990365" lon="8.804139">
        <ele>105.102496</ele>
        <time>2025-09-29T11:41:08.633Z</time>
      </trkpt>
      <trkpt lat="51.990133" lon="8.804632">
        <ele>105.616249</ele>
        <time>2025-09-29T11:41:17.328Z</time>
      </trkpt>
      <trkpt lat="51.990059" lon="8.804789">
        <ele>105.779954</ele>
        <time>2025-09-29T11:41:20.127Z</time>
      </trkpt>
      <trkpt lat="51.990014" lon="8.804978">
        <ele>105.947737</ele>
        <time>2025-09-29T11:41:22.990Z</time>
      </trkpt>
      <trkpt lat="51.989979" lon="8.805580">
        <ele>106.448413</ele>
        <time>2025-09-29T11:41:31.602Z</time>
      </trkpt>
      <trkpt lat="51.989902" lon="8.806660">
        <ele>107.281819</ele>
        <time>2025-09-29T11:41:47.093Z</time>
      </trkpt>
      <trkpt lat="51.989817" lon="8.807906">
        <ele>108.135459</ele>
        <time>2025-09-29T11:42:04.816Z</time>
      </trkpt>
      <trkpt lat="51.989783" lon="8.808398">
        <ele>108.472584</ele>
        <time>2025-09-29T11:42:11.588Z</time>
      </trkpt>
      <trkpt lat="51.989744" lon="8.808960">
        <ele>108.857694</ele>
        <time>2025-09-29T11:42:19.116Z</time>
      </trkpt>
      <trkpt lat="51.989692" lon="8.809801">
        <ele>109.148343</ele>
        <time>2025-09-29T11:42:30.463Z</time>
      </trkpt>
      <trkpt lat="51.989647" lon="8.810391">
        <ele>109.308754</ele>
        <time>2025-09-29T11:42:38.443Z</time>
      </trkpt>
      <trkpt lat="51.989606" lon="8.810798">
        <ele>109.420031</ele>
        <time>2025-09-29T11:42:43.962Z</time>
      </trkpt>
      <trkpt lat="51.989533" lon="8.811218">
        <ele>109.537783</ele>
        <time>2025-09-29T11:42:49.791Z</time>
      </trkpt>
      <trkpt lat="51.989476" lon="8.811475">
        <ele>109.611488</ele>
        <time>2025-09-29T11:42:53.446Z</time>
      </trkpt>
      <trkpt lat="51.989286" lon="8.812334">
        <ele>109.729617</ele>
        <time>2025-09-29T11:43:05.825Z</time>
      </trkpt>
      <trkpt lat="51.989279" lon="8.813266">
        <ele>109.683551</ele>
        <time>2025-09-29T11:43:18.233Z</time>
      </trkpt>
      <trkpt lat="51.988545" lon="8.813304">
        <ele>109.624612</ele>
        <time>2025-09-29T11:43:33.746Z</time>
      </trkpt>
      <trkpt lat="51.987998" lon="8.813321">
        <ele>109.655665</ele>
        <time>2025-09-29T11:43:45.223Z</time>
      </trkpt>
      <trkpt lat="51.987349" lon="8.813328">
        <ele>109.763617</ele>
        <time>2025-09-29T11:43:59.220Z</time>
      </trkpt>
      <trkpt lat="51.986872" lon="8.813337">
        <ele>109.842963</ele>
        <time>2025-09-29T11:44:09.942Z</time>
      </trkpt>
      <trkpt lat="51.986573" lon="8.813374">
        <ele>109.892840</ele>
        <time>2025-09-29T11:44:16.860Z</time>
      </trkpt>
      <trkpt lat="51.986507" lon="8.813377">
        <ele>109.903822</ele>
        <time>2025-09-29T11:44:18.403Z</time>
      </trkpt>
      <trkpt lat="51.986249" lon="8.813364">
        <ele>110.195644</ele>
        <time>2025-09-29T11:44:24.457Z</time>
      </trkpt>
      <trkpt lat="51.986238" lon="8.813477">
        <ele>110.276017</ele>
        <time>2025-09-29T11:44:26.061Z</time>
      </trkpt>
      <trkpt lat="51.986151" lon="8.813534">
        <ele>110.383039</ele>
        <time>2025-09-29T11:44:28.222Z</time>
      </trkpt>
      <trkpt lat="51.986134" lon="8.813598">
        <ele>110.432007</ele>
        <time>2025-09-29T11:44:29.201Z</time>
      </trkpt>
      <trkpt lat="51.986054" lon="8.814053">
        <ele>110.764439</ele>
        <time>2025-09-29T11:44:35.896Z</time>
      </trkpt>
      <trkpt lat="51.985824" lon="8.815311">
        <ele>111.686375</ele>
        <time>2025-09-29T11:44:54.408Z</time>
      </trkpt>
      <trkpt lat="51.985546" lon="8.816819">
        <ele>111.213916</ele>
        <time>2025-09-29T11:45:15.556Z</time>
      </trkpt>
      <trkpt lat="51.985464" lon="8.817134">
        <ele>111.000647</ele>
        <time>2025-09-29T11:45:19.671Z</time>
      </trkpt>
      <trkpt lat="51.985443" lon="8.817390">
        <ele>110.839589</ele>
        <time>2025-09-29T11:45:22.675Z</time>
      </trkpt>
      <trkpt lat="51.985131" lon="8.819026">
        <ele>109.052650</ele>
        <time>2025-09-29T11:45:40.501Z</time>
      </trkpt>
      <trkpt lat="51.984954" lon="8.820036">
        <ele>107.101829</ele>
        <time>2025-09-29T11:45:50.923Z</time>
      </trkpt>
      <trkpt lat="51.984932" lon="8.820287">
        <ele>106.630832</ele>
        <time>2025-09-29T11:45:53.456Z</time>
      </trkpt>
      <trkpt lat="51.984954" lon="8.820691">
        <ele>105.877368</ele>
        <time>2025-09-29T11:45:57.527Z</time>
      </trkpt>
      <trkpt lat="51.985122" lon="8.821813">
        <ele>104.025834</ele>
        <time>2025-09-29T11:46:09.354Z</time>
      </trkpt>
      <trkpt lat="51.985279" lon="8.822915">
        <ele>102.555989</ele>
        <time>2025-09-29T11:46:21.111Z</time>
      </trkpt>
      <trkpt lat="51.985309" lon="8.823191">
        <ele>102.191790</ele>
        <time>2025-09-29T11:46:24.132Z</time>
      </trkpt>
      <trkpt lat="51.985353" lon="8.823454">
        <ele>101.837642</ele>
        <time>2025-09-29T11:46:27.136Z</time>
      </trkpt>
      <trkpt lat="51.985369" lon="8.823755">
        <ele>101.445045</ele>
        <time>2025-09-29T11:46:30.525Z</time>
      </trkpt>
      <trkpt lat="51.985354" lon="8.824038">
        <ele>101.075934</ele>
        <time>2025-09-29T11:46:33.808Z</time>
      </trkpt>
      <trkpt lat="51.985306" lon="8.824267">
        <ele>101.023229</ele>
        <time>2025-09-29T11:46:36.666Z</time>
      </trkpt>
      <trkpt lat="51.985264" lon="8.824370">
        <ele>101.138152</ele>
        <time>2025-09-29T11:46:38.168Z</time>
      </trkpt>
      <trkpt lat="51.985164" lon="8.824612">
        <ele>101.409272</ele>
        <time>2025-09-29T11:46:41.714Z</time>
      </trkpt>
      <trkpt lat="51.984893" lon="8.825078">
        <ele>102.005539</ele>
        <time>2025-09-29T11:46:50.063Z</time>
      </trkpt>
      <trkpt lat="51.985034" lon="8.825106">
        <ele>102.220119</ele>
        <time>2025-09-29T11:46:53.257Z</time>
      </trkpt>
      <trkpt lat="51.985621" lon="8.824931">
        <ele>103.121660</ele>
        <time>2025-09-29T11:47:07.419Z</time>
      </trkpt>
      <trkpt lat="51.985877" lon="8.824960">
        <ele>103.509312</ele>
        <time>2025-09-29T11:47:13.834Z</time>
      </trkpt>
      <trkpt lat="51.986024" lon="8.825051">
        <ele>103.981953</ele>
        <time>2025-09-29T11:47:17.852Z</time>
      </trkpt>
      <trkpt lat="51.986166" lon="8.825257">
        <ele>104.852950</ele>
        <time>2025-09-29T11:47:22.828Z</time>
      </trkpt>
      <trkpt lat="51.986278" lon="8.825529">
        <ele>105.774659</ele>
        <time>2025-09-29T11:47:28.221Z</time>
      </trkpt>
      <trkpt lat="51.986847" lon="8.827856">
        <ele>112.201430</ele>
        <time>2025-09-29T11:48:09.613Z</time>
      </trkpt>
      <trkpt lat="51.986850" lon="8.828070">
        <ele>112.414891</ele>
        <time>2025-09-29T11:48:12.825Z</time>
      </trkpt>
      <trkpt lat="51.986774" lon="8.828340">
        <ele>112.710933</ele>
        <time>2025-09-29T11:48:17.180Z</time>
      </trkpt>
      <trkpt lat="51.987667" lon="8.829450">
        <ele>114.531980</ele>
        <time>2025-09-29T11:48:42.113Z</time>
      </trkpt>
      <trkpt lat="51.987822" lon="8.833234">
        <ele>114.145848</ele>
        <time>2025-09-29T11:49:29.728Z</time>
      </trkpt>
      <trkpt lat="51.987917" lon="8.835233">
        <ele>113.819937</ele>
        <time>2025-09-29T11:49:54.828Z</time>
      </trkpt>
      <trkpt lat="51.988116" lon="8.839760">
        <ele>115.256248</ele>
        <time>2025-09-29T11:50:55.634Z</time>
      </trkpt>
      <trkpt lat="51.988146" lon="8.840373">
        <ele>115.693247</ele>
        <time>2025-09-29T11:51:04.312Z</time>
      </trkpt>
      <trkpt lat="51.988244" lon="8.842432">
        <ele>117.606312</ele>
        <time>2025-09-29T11:51:34.035Z</time>
      </trkpt>
      <trkpt lat="51.988254" lon="8.842513">
        <ele>117.698672</ele>
        <time>2025-09-29T11:51:35.226Z</time>
      </trkpt>
      <trkpt lat="51.988970" lon="8.845294">
        <ele>120.648647</ele>
        <time>2025-09-29T11:52:18.157Z</time>
      </trkpt>
      <trkpt lat="51.989624" lon="8.847836">
        <ele>122.322485</ele>
        <time>2025-09-29T11:52:56.212Z</time>
      </trkpt>
      <trkpt lat="51.989711" lon="8.847795">
        <ele>122.372334</ele>
        <time>2025-09-29T11:52:58.206Z</time>
      </trkpt>
      <trkpt lat="51.993484" lon="8.850999">
        <ele>124.584138</ele>
        <time>2025-09-29T11:54:31.289Z</time>
      </trkpt>
      <trkpt lat="51.994636" lon="8.850697">
        <ele>124.848307</ele>
        <time>2025-09-29T11:54:56.706Z</time>
      </trkpt>
      <trkpt lat="51.996304" lon="8.850258">
        <ele>124.196778</ele>
        <time>2025-09-29T11:55:32.116Z</time>
      </trkpt>
      <trkpt lat="51.996337" lon="8.850245">
        <ele>124.158849</ele>
        <time>2025-09-29T11:55:32.770Z</time>
      </trkpt>
      <trkpt lat="51.998788" lon="8.849126">
        <ele>120.660820</ele>
        <time>2025-09-29T11:56:18.224Z</time>
      </trkpt>
      <trkpt lat="51.999036" lon="8.849023">
        <ele>120.261093</ele>
        <time>2025-09-29T11:56:23.207Z</time>
      </trkpt>
      <trkpt lat="51.999693" lon="8.848959">
        <ele>119.622800</ele>
        <time>2025-09-29T11:56:36.312Z</time>
      </trkpt>
      <trkpt lat="51.999905" lon="8.848975">
        <ele>119.432210</ele>
        <time>2025-09-29T11:56:40.635Z</time>
      </trkpt>
      <trkpt lat="52.001071" lon="8.849411">
        <ele>118.316194</ele>
        <time>2025-09-29T11:57:03.952Z</time>
      </trkpt>
      <trkpt lat="52.001369" lon="8.849476">
        <ele>117.982853</ele>
        <time>2025-09-29T11:57:09.580Z</time>
      </trkpt>
      <trkpt lat="52.001643" lon="8.849444">
        <ele>117.678301</ele>
        <time>2025-09-29T11:57:14.778Z</time>
      </trkpt>
      <trkpt lat="52.001939" lon="8.849281">
        <ele>117.331798</ele>
        <time>2025-09-29T11:57:20.777Z</time>
      </trkpt>
      <trkpt lat="52.002920" lon="8.848512">
        <ele>115.812034</ele>
        <time>2025-09-29T11:57:41.762Z</time>
      </trkpt>
      <trkpt lat="52.003462" lon="8.848176">
        <ele>114.686785</ele>
        <time>2025-09-29T11:57:52.357Z</time>
      </trkpt>
      <trkpt lat="52.003898" lon="8.848055">
        <ele>113.828843</ele>
        <time>2025-09-29T11:57:59.965Z</time>
      </trkpt>
      <trkpt lat="52.005031" lon="8.847588">
        <ele>111.025413</ele>
        <time>2025-09-29T11:58:19.301Z</time>
      </trkpt>
      <trkpt lat="52.006473" lon="8.847110">
        <ele>107.417383</ele>
        <time>2025-09-29T11:58:44.371Z</time>
      </trkpt>
      <trkpt lat="52.007484" lon="8.846891">
        <ele>105.359391</ele>
        <time>2025-09-29T11:59:02.288Z</time>
      </trkpt>
      <trkpt lat="52.007906" lon="8.846858">
        <ele>104.558946</ele>
        <time>2025-09-29T11:59:09.858Z</time>
      </trkpt>
      <trkpt lat="52.009148" lon="8.846906">
        <ele>102.810684</ele>
        <time>2025-09-29T11:59:33.153Z</time>
      </trkpt>
      <trkpt lat="52.009213" lon="8.846873">
        <ele>102.714852</ele>
        <time>2025-09-29T11:59:34.450Z</time>
      </trkpt>
      <trkpt lat="52.009282" lon="8.846857">
        <ele>102.616770</ele>
        <time>2025-09-29T11:59:35.773Z</time>
      </trkpt>
      <trkpt lat="52.009686" lon="8.846767">
        <ele>102.054712</ele>
        <time>2025-09-29T11:59:43.426Z</time>
      </trkpt>
      <trkpt lat="52.009790" lon="8.846740">
        <ele>101.923155</ele>
        <time>2025-09-29T11:59:45.374Z</time>
      </trkpt>
      <trkpt lat="52.010840" lon="8.846349">
        <ele>100.577563</ele>
        <time>2025-09-29T12:00:05.593Z</time>
      </trkpt>
      <trkpt lat="52.011415" lon="8.846137">
        <ele>99.868108</ele>
        <time>2025-09-29T12:00:16.799Z</time>
      </trkpt>
      <trkpt lat="52.011794" lon="8.845926">
        <ele>99.593327</ele>
        <time>2025-09-29T12:00:24.701Z</time>
      </trkpt>
      <trkpt lat="52.011842" lon="8.845931">
        <ele>99.560338</ele>
        <time>2025-09-29T12:00:25.663Z</time>
      </trkpt>
      <trkpt lat="52.011844" lon="8.845811">
        <ele>99.509662</ele>
        <time>2025-09-29T12:00:27.158Z</time>
      </trkpt>
      <trkpt lat="52.011896" lon="8.845805">
        <ele>99.473907</ele>
        <time>2025-09-29T12:00:28.254Z</time>
      </trkpt>
      <trkpt lat="52.012242" lon="8.845406">
        <ele>99.182897</ele>
        <time>2025-09-29T12:00:37.188Z</time>
      </trkpt>
      <trkpt lat="52.012351" lon="8.845657">
        <ele>99.053220</ele>
        <time>2025-09-29T12:00:41.153Z</time>
      </trkpt>
      <trkpt lat="52.012642" lon="8.846333">
        <ele>98.704981</ele>
        <time>2025-09-29T12:00:51.873Z</time>
      </trkpt>
      <trkpt lat="52.012700" lon="8.846583">
        <ele>98.596947</ele>
        <time>2025-09-29T12:00:55.327Z</time>
      </trkpt>
      <trkpt lat="52.012752" lon="8.847402">
        <ele>98.271324</ele>
        <time>2025-09-29T12:01:05.705Z</time>
      </trkpt>
      <trkpt lat="52.012890" lon="8.848220">
        <ele>97.935883</ele>
        <time>2025-09-29T12:01:16.370Z</time>
      </trkpt>
      <trkpt lat="52.012953" lon="8.848602">
        <ele>97.779478</ele>
        <time>2025-09-29T12:01:21.329Z</time>
      </trkpt>
      <trkpt lat="52.013151" lon="8.849393">
        <ele>97.561797</ele>
        <time>2025-09-29T12:01:32.515Z</time>
      </trkpt>
      <trkpt lat="52.013173" lon="8.849485">
        <ele>97.589772</ele>
        <time>2025-09-29T12:01:33.810Z</time>
      </trkpt>
      <trkpt lat="52.013277" lon="8.849824">
        <ele>97.697131</ele>
        <time>2025-09-29T12:01:38.987Z</time>
      </trkpt>
      <trkpt lat="52.013173" lon="8.849485">
        <ele>97.804490</ele>
        <time>2025-09-29T12:01:44.235Z</time>
      </trkpt>
      <trkpt lat="52.013151" lon="8.849393">
        <ele>97.832466</ele>
        <time>2025-09-29T12:01:45.636Z</time>
      </trkpt>
      <trkpt lat="52.012216" lon="8.849839">
        <ele>98.281217</ele>
        <time>2025-09-29T12:02:08.126Z</time>
      </trkpt>
      <trkpt lat="52.012379" lon="8.850782">
        <ele>98.417639</ele>
        <time>2025-09-29T12:02:21.459Z</time>
      </trkpt>
      <trkpt lat="52.012475" lon="8.851286">
        <ele>98.470698</ele>
        <time>2025-09-29T12:02:28.520Z</time>
      </trkpt>
      <trkpt lat="52.012512" lon="8.851546">
        <ele>98.497536</ele>
        <time>2025-09-29T12:02:32.017Z</time>
      </trkpt>
      <trkpt lat="52.012500" lon="8.851729">
        <ele>98.516044</ele>
        <time>2025-09-29T12:02:34.382Z</time>
      </trkpt>
      <trkpt lat="52.012465" lon="8.851807">
        <ele>98.525752</ele>
        <time>2025-09-29T12:02:35.637Z</time>
      </trkpt>
      <trkpt lat="52.011980" lon="8.852277">
        <ele>98.618026</ele>
        <time>2025-09-29T12:02:47.160Z</time>
      </trkpt>
      <trkpt lat="52.012020" lon="8.852319">
        <ele>98.625808</ele>
        <time>2025-09-29T12:02:48.135Z</time>
      </trkpt>
      <trkpt lat="52.012156" lon="8.852861">
        <ele>98.728548</ele>
        <time>2025-09-29T12:02:55.527Z</time>
      </trkpt>
      <trkpt lat="52.012187" lon="8.852878">
        <ele>98.738512</ele>
        <time>2025-09-29T12:02:56.195Z</time>
      </trkpt>
      <trkpt lat="52.012349" lon="8.854339">
        <ele>99.016769</ele>
        <time>2025-09-29T12:03:15.877Z</time>
      </trkpt>
      <trkpt lat="52.012379" lon="8.854567">
        <ele>99.060471</ele>
        <time>2025-09-29T12:03:19.014Z</time>
      </trkpt>
      <trkpt lat="52.012410" lon="8.854906">
        <ele>99.124710</ele>
        <time>2025-09-29T12:03:23.685Z</time>
      </trkpt>
      <trkpt lat="52.012431" lon="8.854991">
        <ele>99.141878</ele>
        <time>2025-09-29T12:03:24.932Z</time>
      </trkpt>
      <trkpt lat="52.012504" lon="8.855292">
        <ele>99.250736</ele>
        <time>2025-09-29T12:03:29.380Z</time>
      </trkpt>
      <trkpt lat="52.012655" lon="8.855646">
        <ele>99.517800</ele>
        <time>2025-09-29T12:03:35.369Z</time>
      </trkpt>
      <trkpt lat="52.013080" lon="8.856317">
        <ele>100.114818</ele>
        <time>2025-09-29T12:03:48.896Z</time>
      </trkpt>
      <trkpt lat="52.013089" lon="8.856471">
        <ele>100.210736</ele>
        <time>2025-09-29T12:03:51.034Z</time>
      </trkpt>
      <trkpt lat="52.012943" lon="8.858586">
        <ele>101.095196</ele>
        <time>2025-09-29T12:04:20.361Z</time>
      </trkpt>
      <trkpt lat="52.012897" lon="8.858911">
        <ele>101.134317</ele>
        <time>2025-09-29T12:04:24.860Z</time>
      </trkpt>
      <trkpt lat="52.012796" lon="8.859514">
        <ele>101.207628</ele>
        <time>2025-09-29T12:04:33.126Z</time>
      </trkpt>
      <trkpt lat="52.012777" lon="8.860369">
        <ele>101.307994</ele>
        <time>2025-09-29T12:04:44.049Z</time>
      </trkpt>
      <trkpt lat="52.012930" lon="8.863301">
        <ele>100.018715</ele>
        <time>2025-09-29T12:05:19.384Z</time>
      </trkpt>
      <trkpt lat="52.013054" lon="8.865691">
        <ele>99.807362</ele>
        <time>2025-09-29T12:05:49.193Z</time>
      </trkpt>
      <trkpt lat="52.013006" lon="8.865832">
        <ele>99.799754</ele>
        <time>2025-09-29T12:05:51.365Z</time>
      </trkpt>
      <trkpt lat="52.012251" lon="8.866855">
        <ele>100.725404</ele>
        <time>2025-09-29T12:06:13.640Z</time>
      </trkpt>
      <trkpt lat="52.012294" lon="8.867253">
        <ele>101.106043</ele>
        <time>2025-09-29T12:06:19.428Z</time>
      </trkpt>
      <trkpt lat="52.012594" lon="8.869247">
        <ele>103.009591</ele>
        <time>2025-09-29T12:06:48.832Z</time>
      </trkpt>
      <trkpt lat="52.012646" lon="8.870991">
        <ele>104.558311</ele>
        <time>2025-09-29T12:07:13.530Z</time>
      </trkpt>
      <trkpt lat="52.012760" lon="8.871782">
        <ele>105.169003</ele>
        <time>2025-09-29T12:07:24.799Z</time>
      </trkpt>
      <trkpt lat="52.013042" lon="8.873115">
        <ele>105.571164</ele>
        <time>2025-09-29T12:07:43.837Z</time>
      </trkpt>
      <trkpt lat="52.013371" lon="8.874400">
        <ele>105.968796</ele>
        <time>2025-09-29T12:08:02.142Z</time>
      </trkpt>
      <trkpt lat="52.013446" lon="8.874854">
        <ele>106.107119</ele>
        <time>2025-09-29T12:08:08.427Z</time>
      </trkpt>
      <trkpt lat="52.013500" lon="8.875271">
        <ele>106.232513</ele>
        <time>2025-09-29T12:08:14.108Z</time>
      </trkpt>
      <trkpt lat="52.013659" lon="8.875770">
        <ele>106.397860</ele>
        <time>2025-09-29T12:08:21.639Z</time>
      </trkpt>
      <trkpt lat="52.013806" lon="8.876044">
        <ele>106.504819</ele>
        <time>2025-09-29T12:08:26.506Z</time>
      </trkpt>
      <trkpt lat="52.013873" lon="8.876216">
        <ele>106.564717</ele>
        <time>2025-09-29T12:08:29.246Z</time>
      </trkpt>
      <trkpt lat="52.014085" lon="8.877021">
        <ele>106.833906</ele>
        <time>2025-09-29T12:08:41.160Z</time>
      </trkpt>
      <trkpt lat="52.014173" lon="8.877215">
        <ele>106.974377</ele>
        <time>2025-09-29T12:08:44.497Z</time>
      </trkpt>
      <trkpt lat="52.014217" lon="8.877282">
        <ele>107.031486</ele>
        <time>2025-09-29T12:08:45.840Z</time>
      </trkpt>
      <trkpt lat="52.014289" lon="8.877348">
        <ele>107.109776</ele>
        <time>2025-09-29T12:08:47.694Z</time>
      </trkpt>
      <trkpt lat="52.014379" lon="8.877456">
        <ele>107.215736</ele>
        <time>2025-09-29T12:08:50.196Z</time>
      </trkpt>
      <trkpt lat="52.014527" lon="8.877371">
        <ele>107.364397</ele>
        <time>2025-09-29T12:08:53.687Z</time>
      </trkpt>
      <trkpt lat="52.014891" lon="8.877340">
        <ele>107.709594</ele>
        <time>2025-09-29T12:09:01.837Z</time>
      </trkpt>
      <trkpt lat="52.015004" lon="8.877331">
        <ele>107.816738</ele>
        <time>2025-09-29T12:09:04.390Z</time>
      </trkpt>
      <trkpt lat="52.015097" lon="8.877387">
        <ele>107.910666</ele>
        <time>2025-09-29T12:09:06.623Z</time>
      </trkpt>
      <trkpt lat="52.015224" lon="8.877325">
        <ele>108.036252</ele>
        <time>2025-09-29T12:09:09.614Z</time>
      </trkpt>
      <trkpt lat="52.015520" lon="8.877287">
        <ele>108.317450</ele>
        <time>2025-09-29T12:09:16.333Z</time>
      </trkpt>
      <trkpt lat="52.016073" lon="8.877216">
        <ele>108.738243</ele>
        <time>2025-09-29T12:09:28.971Z</time>
      </trkpt>
      <trkpt lat="52.017344" lon="8.877542">
        <ele>109.569342</ele>
        <time>2025-09-29T12:09:57.768Z</time>
      </trkpt>
      <trkpt lat="52.017851" lon="8.877581">
        <ele>108.799771</ele>
        <time>2025-09-29T12:10:08.040Z</time>
      </trkpt>
      <trkpt lat="52.018583" lon="8.877864">
        <ele>106.877338</ele>
        <time>2025-09-29T12:10:21.003Z</time>
      </trkpt>
      <trkpt lat="52.019032" lon="8.878068">
        <ele>105.686166</ele>
        <time>2025-09-29T12:10:28.398Z</time>
      </trkpt>
      <trkpt lat="52.019570" lon="8.878222">
        <ele>103.965035</ele>
        <time>2025-09-29T12:10:36.676Z</time>
      </trkpt>
      <trkpt lat="52.020077" lon="8.878479">
        <ele>102.049085</ele>
        <time>2025-09-29T12:10:44.785Z</time>
      </trkpt>
      <trkpt lat="52.020358" lon="8.878624">
        <ele>100.985482</ele>
        <time>2025-09-29T12:10:49.447Z</time>
      </trkpt>
      <trkpt lat="52.020418" lon="8.878816">
        <ele>100.507428</ele>
        <time>2025-09-29T12:10:51.591Z</time>
      </trkpt>
      <trkpt lat="52.020428" lon="8.879004">
        <ele>100.088510</ele>
        <time>2025-09-29T12:10:53.501Z</time>
      </trkpt>
      <trkpt lat="52.020413" lon="8.879125">
        <ele>99.814492</ele>
        <time>2025-09-29T12:10:54.754Z</time>
      </trkpt>
      <trkpt lat="52.020408" lon="8.879227">
        <ele>99.587333</ele>
        <time>2025-09-29T12:10:55.803Z</time>
      </trkpt>
      <trkpt lat="52.020407" lon="8.879274">
        <ele>99.482930</ele>
        <time>2025-09-29T12:10:56.294Z</time>
      </trkpt>
      <trkpt lat="52.020533" lon="8.879543">
        <ele>98.732434</ele>
        <time>2025-09-29T12:10:59.817Z</time>
      </trkpt>
      <trkpt lat="52.020546" lon="8.879682">
        <ele>98.606500</ele>
        <time>2025-09-29T12:11:01.303Z</time>
      </trkpt>
      <trkpt lat="52.020517" lon="8.879949">
        <ele>98.658883</ele>
        <time>2025-09-29T12:11:04.239Z</time>
      </trkpt>
      <trkpt lat="52.020506" lon="8.880503">
        <ele>98.765974</ele>
        <time>2025-09-29T12:11:11.004Z</time>
      </trkpt>
      <trkpt lat="52.020380" lon="8.881143">
        <ele>98.895799</ele>
        <time>2025-09-29T12:11:20.047Z</time>
      </trkpt>
      <trkpt lat="52.020319" lon="8.881402">
        <ele>98.949379</ele>
        <time>2025-09-29T12:11:23.891Z</time>
      </trkpt>
      <trkpt lat="52.020253" lon="8.881725">
        <ele>99.015134</ele>
        <time>2025-09-29T12:11:28.706Z</time>
      </trkpt>
      <trkpt lat="52.020275" lon="8.881843">
        <ele>99.038956</ele>
        <time>2025-09-29T12:11:30.461Z</time>
      </trkpt>
      <trkpt lat="52.020381" lon="8.882072">
        <ele>99.094319</ele>
        <time>2025-09-29T12:11:34.536Z</time>
      </trkpt>
      <trkpt lat="52.020529" lon="8.883032">
        <ele>99.779309</ele>
        <time>2025-09-29T12:11:48.867Z</time>
      </trkpt>
      <trkpt lat="52.020545" lon="8.883138">
        <ele>99.880966</ele>
        <time>2025-09-29T12:11:50.485Z</time>
      </trkpt>
      <trkpt lat="52.020799" lon="8.884162">
        <ele>100.909301</ele>
        <time>2025-09-29T12:12:06.383Z</time>
      </trkpt>
      <trkpt lat="52.020913" lon="8.884722">
        <ele>101.458690</ele>
        <time>2025-09-29T12:12:14.532Z</time>
      </trkpt>
      <trkpt lat="52.020963" lon="8.885105">
        <ele>101.823359</ele>
        <time>2025-09-29T12:12:19.794Z</time>
      </trkpt>
      <trkpt lat="52.021056" lon="8.885770">
        <ele>102.115718</ele>
        <time>2025-09-29T12:12:28.743Z</time>
      </trkpt>
      <trkpt lat="52.021037" lon="8.886166">
        <ele>102.266958</ele>
        <time>2025-09-29T12:12:34.004Z</time>
      </trkpt>
      <trkpt lat="52.021137" lon="8.886910">
        <ele>102.556924</ele>
        <time>2025-09-29T12:12:44.367Z</time>
      </trkpt>
      <trkpt lat="52.021142" lon="8.887379">
        <ele>102.735528</ele>
        <time>2025-09-29T12:12:50.750Z</time>
      </trkpt>
      <trkpt lat="52.021188" lon="8.887437">
        <ele>102.771553</ele>
        <time>2025-09-29T12:12:52.011Z</time>
      </trkpt>
      <trkpt lat="52.021246" lon="8.887929">
        <ele>102.962294</ele>
        <time>2025-09-29T12:12:58.897Z</time>
      </trkpt>
      <trkpt lat="52.021253" lon="8.887987">
        <ele>102.984799</ele>
        <time>2025-09-29T12:12:59.736Z</time>
      </trkpt>
      <trkpt lat="52.021256" lon="8.888123">
        <ele>103.048393</ele>
        <time>2025-09-29T12:13:01.623Z</time>
      </trkpt>
      <trkpt lat="52.021271" lon="8.888276">
        <ele>103.122810</ele>
        <time>2025-09-29T12:13:04.281Z</time>
      </trkpt>
      <trkpt lat="52.021309" lon="8.888503">
        <ele>103.235807</ele>
        <time>2025-09-29T12:13:07.544Z</time>
      </trkpt>
      <trkpt lat="52.021316" lon="8.888552">
        <ele>103.259968</ele>
        <time>2025-09-29T12:13:08.243Z</time>
      </trkpt>
      <trkpt lat="52.021395" lon="8.889494">
        <ele>103.716618</ele>
        <time>2025-09-29T12:13:21.424Z</time>
      </trkpt>
      <trkpt lat="52.021696" lon="8.891769">
        <ele>104.726307</ele>
        <time>2025-09-29T12:13:52.894Z</time>
      </trkpt>
      <trkpt lat="52.021712" lon="8.891889">
        <ele>104.770766</ele>
        <time>2025-09-29T12:13:54.608Z</time>
      </trkpt>
      <trkpt lat="52.022249" lon="8.895833">
        <ele>105.805894</ele>
        <time>2025-09-29T12:14:49.403Z</time>
      </trkpt>
      <trkpt lat="52.022248" lon="8.896083">
        <ele>105.846775</ele>
        <time>2025-09-29T12:14:52.635Z</time>
      </trkpt>
      <trkpt lat="52.022220" lon="8.896184">
        <ele>105.864890</ele>
        <time>2025-09-29T12:14:54.057Z</time>
      </trkpt>
      <trkpt lat="52.022153" lon="8.896281">
        <ele>105.888735</ele>
        <time>2025-09-29T12:14:55.891Z</time>
      </trkpt>
      <trkpt lat="52.022089" lon="8.896304">
        <ele>105.906153</ele>
        <time>2025-09-29T12:14:57.231Z</time>
      </trkpt>
      <trkpt lat="52.022081" lon="8.896342">
        <ele>105.912721</ele>
        <time>2025-09-29T12:14:57.733Z</time>
      </trkpt>
      <trkpt lat="52.022073" lon="8.896374">
        <ele>105.918369</ele>
        <time>2025-09-29T12:14:58.160Z</time>
      </trkpt>
      <trkpt lat="52.022066" lon="8.896404">
        <ele>105.923615</ele>
        <time>2025-09-29T12:14:58.546Z</time>
      </trkpt>
      <trkpt lat="52.022051" lon="8.896448">
        <ele>105.931685</ele>
        <time>2025-09-29T12:14:59.179Z</time>
      </trkpt>
      <trkpt lat="52.022044" lon="8.896467">
        <ele>105.911105</ele>
        <time>2025-09-29T12:14:59.454Z</time>
      </trkpt>
      <trkpt lat="52.022033" lon="8.896492">
        <ele>105.882544</ele>
        <time>2025-09-29T12:14:59.826Z</time>
      </trkpt>
      <trkpt lat="52.022011" lon="8.896539">
        <ele>105.827666</ele>
        <time>2025-09-29T12:15:00.577Z</time>
      </trkpt>
      <trkpt lat="52.022092" lon="8.896740">
        <ele>105.604382</ele>
        <time>2025-09-29T12:15:03.491Z</time>
      </trkpt>
      <trkpt lat="52.022376" lon="8.897071">
        <ele>105.076581</ele>
        <time>2025-09-29T12:15:10.275Z</time>
      </trkpt>
      <trkpt lat="52.022560" lon="8.897426">
        <ele>104.645242</ele>
        <time>2025-09-29T12:15:15.671Z</time>
      </trkpt>
      <trkpt lat="52.022629" lon="8.897629">
        <ele>104.429726</ele>
        <time>2025-09-29T12:15:18.286Z</time>
      </trkpt>
      <trkpt lat="52.022663" lon="8.897815">
        <ele>104.249409</ele>
        <time>2025-09-29T12:15:20.452Z</time>
      </trkpt>
      <trkpt lat="52.022721" lon="8.898139">
        <ele>103.935832</ele>
        <time>2025-09-29T12:15:24.152Z</time>
      </trkpt>
      <trkpt lat="52.022798" lon="8.898823">
        <ele>103.289639</ele>
        <time>2025-09-29T12:15:31.444Z</time>
      </trkpt>
      <trkpt lat="52.022801" lon="8.899414">
        <ele>102.595530</ele>
        <time>2025-09-29T12:15:37.507Z</time>
      </trkpt>
      <trkpt lat="52.022794" lon="8.899612">
        <ele>102.355023</ele>
        <time>2025-09-29T12:15:39.552Z</time>
      </trkpt>
      <trkpt lat="52.022794" lon="8.899637">
        <ele>102.324706</ele>
        <time>2025-09-29T12:15:39.818Z</time>
      </trkpt>
      <trkpt lat="52.022793" lon="8.899667">
        <ele>102.288273</ele>
        <time>2025-09-29T12:15:40.138Z</time>
      </trkpt>
      <trkpt lat="52.022792" lon="8.899707">
        <ele>102.239725</ele>
        <time>2025-09-29T12:15:40.559Z</time>
      </trkpt>
      <trkpt lat="52.022797" lon="8.899796">
        <ele>102.131348</ele>
        <time>2025-09-29T12:15:41.499Z</time>
      </trkpt>
      <trkpt lat="52.022828" lon="8.899981">
        <ele>101.898832</ele>
        <time>2025-09-29T12:15:43.519Z</time>
      </trkpt>
      <trkpt lat="52.022901" lon="8.899961">
        <ele>101.752939</ele>
        <time>2025-09-29T12:15:45.223Z</time>
      </trkpt>
      <trkpt lat="52.023110" lon="8.899839">
        <ele>101.315293</ele>
        <time>2025-09-29T12:15:50.432Z</time>
      </trkpt>
      <trkpt lat="52.023131" lon="8.899826">
        <ele>101.271007</ele>
        <time>2025-09-29T12:15:50.968Z</time>
      </trkpt>
      <trkpt lat="52.023550" lon="8.899572">
        <ele>100.389695</ele>
        <time>2025-09-29T12:16:01.945Z</time>
      </trkpt>
      <trkpt lat="52.023567" lon="8.899562">
        <ele>100.354065</ele>
        <time>2025-09-29T12:16:02.382Z</time>
      </trkpt>
      <trkpt lat="52.023683" lon="8.899522">
        <ele>100.120372</ele>
        <time>2025-09-29T12:16:05.367Z</time>
      </trkpt>
      <trkpt lat="52.023849" lon="8.899407">
        <ele>99.764747</ele>
        <time>2025-09-29T12:16:08.830Z</time>
      </trkpt>
      <trkpt lat="52.024068" lon="8.899374">
        <ele>99.604440</ele>
        <time>2025-09-29T12:16:12.975Z</time>
      </trkpt>
      <trkpt lat="52.024100" lon="8.899368">
        <ele>99.592022</ele>
        <time>2025-09-29T12:16:13.634Z</time>
      </trkpt>
      <trkpt lat="52.024077" lon="8.899614">
        <ele>99.532999</ele>
        <time>2025-09-29T12:16:16.784Z</time>
      </trkpt>
      <trkpt lat="52.023986" lon="8.901106">
        <ele>99.177347</ele>
        <time>2025-09-29T12:16:36.247Z</time>
      </trkpt>
      <trkpt lat="52.023918" lon="8.901989">
        <ele>98.967317</ele>
        <time>2025-09-29T12:16:47.545Z</time>
      </trkpt>
      <trkpt lat="52.023946" lon="8.903493">
        <ele>98.644135</ele>
        <time>2025-09-29T12:17:06.214Z</time>
      </trkpt>
      <trkpt lat="52.023892" lon="8.904000">
        <ele>98.533621</ele>
        <time>2025-09-29T12:17:12.678Z</time>
      </trkpt>
      <trkpt lat="52.023872" lon="8.904100">
        <ele>98.511037</ele>
        <time>2025-09-29T12:17:14.002Z</time>
      </trkpt>
      <trkpt lat="52.023851" lon="8.904259">
        <ele>98.476108</ele>
        <time>2025-09-29T12:17:16.084Z</time>
      </trkpt>
      <trkpt lat="52.023846" lon="8.904631">
        <ele>98.396190</ele>
        <time>2025-09-29T12:17:20.844Z</time>
      </trkpt>
      <trkpt lat="52.023984" lon="8.905573">
        <ele>98.156394</ele>
        <time>2025-09-29T12:17:33.188Z</time>
      </trkpt>
      <trkpt lat="52.024136" lon="8.906030">
        <ele>98.022831</ele>
        <time>2025-09-29T12:17:39.660Z</time>
      </trkpt>
      <trkpt lat="52.024340" lon="8.906308">
        <ele>97.911591</ele>
        <time>2025-09-29T12:17:44.961Z</time>
      </trkpt>
      <trkpt lat="52.024396" lon="8.906385">
        <ele>97.880942</ele>
        <time>2025-09-29T12:17:46.464Z</time>
      </trkpt>
      <trkpt lat="52.025135" lon="8.907017">
        <ele>97.598130</ele>
        <time>2025-09-29T12:18:03.330Z</time>
      </trkpt>
      <trkpt lat="52.025188" lon="8.907045">
        <ele>97.598130</ele>
        <time>2025-09-29T12:18:04.825Z</time>
      </trkpt>
      <trkpt lat="52.025203" lon="8.907453">
        <ele>97.598130</ele>
        <time>2025-09-29T12:18:10.194Z</time>
      </trkpt>
      <trkpt lat="52.025148" lon="8.907466">
        <ele>97.598130</ele>
        <time>2025-09-29T12:18:11.720Z</time>
      </trkpt>
      <trkpt lat="52.025134" lon="8.907465">
        <ele>97.598130</ele>
        <time>2025-09-29T12:18:12.105Z</time>
      </trkpt>
      <trkpt lat="52.025044" lon="8.907447">
        <ele>97.598130</ele>
        <time>2025-09-29T12:18:13.958Z</time>
      </trkpt>
      <trkpt lat="52.024891" lon="8.907415">
        <ele>97.598130</ele>
        <time>2025-09-29T12:18:17.171Z</time>
      </trkpt>
      <trkpt lat="52.024761" lon="8.907326">
        <ele>97.598130</ele>
        <time>2025-09-29T12:18:20.124Z</time>
      </trkpt>
      <trkpt lat="52.024630" lon="8.907230">
        <ele>97.598130</ele>
        <time>2025-09-29T12:18:23.154Z</time>
      </trkpt>
      <trkpt lat="52.024501" lon="8.907135">
        <ele>97.598130</ele>
        <time>2025-09-29T12:18:26.173Z</time>
      </trkpt>
      <trkpt lat="52.024446" lon="8.907343">
        <ele>97.598130</ele>
        <time>2025-09-29T12:18:29.177Z</time>
      </trkpt>
    </trkseg>
  </trk>
</gpx>